<?xml version="1.0" encoding="UTF-8" standalone="no" ?>
<gpx xmlns="http://www.topografix.com/GPX/1/1" xmlns:xsi="http://www.w3.org/2001/XMLSchema-instance" xsi:schemaLocation="http://www.topografix.com/GPX/1/1 http://www.topografix.com/GPX/1/1/gpx.xsd" version="1.1" creator="VisuGPX - https://www.visugpx.com">
  <metadata>
    <name>Grasse (4 chemins) - Bois Mourachonne - ZI Argile - Grasse</name>
    <desc><![CDATA[Bonne petite sortie avec descente montée, single , piste, caillasse !]]></desc>
  </metadata>
  <trk>
    <name><![CDATA[moucharonne
]]></name>
    <desc><![CDATA[<h1>OruxMaps</h1><br /><hr align="center" width="480" style="height: 2px; width: 517px"/><h2>Nom: moucharonne
</h2><br /><p>Temps de départ: 09/07/2015 14:14</p><p>Temps d'arrivée: 09/07/2015 16:15</p><p>Distance: 18,4km (02:00)</p><p>Temps déplacement: 02:00</p><p>Vitesse moyenne: 9,1km/h</p><p>Vitesse moyenne: 9,1km/h</p><p>Vitess Max.: 43,1km/h</p><p>Altitude minimale: 44m</p><p>Altitude maximale: 236m</p><p>Vitesse d'élévation: 535,1m/h</p><p>Vitesse de descente: -831,4m/h</p><p>Gain Altitude: 573m</p><p>Perte Altitude: -560m</p><p>Temps d'élévation: 01:04</p><p>Temps de descente: 00:40</p><hr align="center" width="480" style="height: 2px; width: 517px"/>]]></desc>
    <trkseg>
      <trkpt lat="43.6499" lon="6.93375">
        <ele>222.18</ele>
        <time>2015-09-07T12:14:18Z</time>
      </trkpt>
      <trkpt lat="43.64976" lon="6.93355">
        <ele>234.01</ele>
        <time>2015-09-07T12:14:25Z</time>
      </trkpt>
      <trkpt lat="43.64958" lon="6.93346">
        <ele>231.79</ele>
        <time>2015-09-07T12:14:29Z</time>
      </trkpt>
      <trkpt lat="43.64938" lon="6.9335">
        <ele>229.66</ele>
        <time>2015-09-07T12:14:37Z</time>
      </trkpt>
      <trkpt lat="43.6493" lon="6.93373">
        <ele>225.63</ele>
        <time>2015-09-07T12:14:42Z</time>
      </trkpt>
      <trkpt lat="43.64922" lon="6.93399">
        <ele>223.75</ele>
        <time>2015-09-07T12:14:48Z</time>
      </trkpt>
      <trkpt lat="43.6491" lon="6.9342">
        <ele>221.62</ele>
        <time>2015-09-07T12:15:00Z</time>
      </trkpt>
      <trkpt lat="43.64906" lon="6.93444">
        <ele>221.23</ele>
        <time>2015-09-07T12:15:03Z</time>
      </trkpt>
      <trkpt lat="43.649" lon="6.93473">
        <ele>218.68</ele>
        <time>2015-09-07T12:15:07Z</time>
      </trkpt>
      <trkpt lat="43.64894" lon="6.935">
        <ele>216.97</ele>
        <time>2015-09-07T12:15:12Z</time>
      </trkpt>
      <trkpt lat="43.64886" lon="6.93523">
        <ele>216.4</ele>
        <time>2015-09-07T12:15:15Z</time>
      </trkpt>
      <trkpt lat="43.64879" lon="6.93554">
        <ele>215.25</ele>
        <time>2015-09-07T12:15:19Z</time>
      </trkpt>
      <trkpt lat="43.64874" lon="6.93582">
        <ele>215.18</ele>
        <time>2015-09-07T12:15:23Z</time>
      </trkpt>
      <trkpt lat="43.64869" lon="6.93611">
        <ele>213.19</ele>
        <time>2015-09-07T12:15:29Z</time>
      </trkpt>
      <trkpt lat="43.64868" lon="6.9364">
        <ele>213.74</ele>
        <time>2015-09-07T12:15:34Z</time>
      </trkpt>
      <trkpt lat="43.64866" lon="6.93668">
        <ele>214.97</ele>
        <time>2015-09-07T12:15:39Z</time>
      </trkpt>
      <trkpt lat="43.64864" lon="6.93695">
        <ele>215.41</ele>
        <time>2015-09-07T12:15:43Z</time>
      </trkpt>
      <trkpt lat="43.64859" lon="6.93721">
        <ele>213.68</ele>
        <time>2015-09-07T12:15:48Z</time>
      </trkpt>
      <trkpt lat="43.64855" lon="6.93748">
        <ele>215.27</ele>
        <time>2015-09-07T12:15:52Z</time>
      </trkpt>
      <trkpt lat="43.64855" lon="6.93774">
        <ele>217.06</ele>
        <time>2015-09-07T12:15:56Z</time>
      </trkpt>
      <trkpt lat="43.64857" lon="6.93805">
        <ele>213.36</ele>
        <time>2015-09-07T12:16:00Z</time>
      </trkpt>
      <trkpt lat="43.64856" lon="6.93836">
        <ele>212.44</ele>
        <time>2015-09-07T12:16:04Z</time>
      </trkpt>
      <trkpt lat="43.64857" lon="6.93862">
        <ele>210.78</ele>
        <time>2015-09-07T12:16:11Z</time>
      </trkpt>
      <trkpt lat="43.64852" lon="6.93897">
        <ele>209.38</ele>
        <time>2015-09-07T12:16:14Z</time>
      </trkpt>
      <trkpt lat="43.64844" lon="6.93922">
        <ele>207.48</ele>
        <time>2015-09-07T12:16:16Z</time>
      </trkpt>
      <trkpt lat="43.64833" lon="6.93942">
        <ele>207</ele>
        <time>2015-09-07T12:16:18Z</time>
      </trkpt>
      <trkpt lat="43.64812" lon="6.93966">
        <ele>206.28</ele>
        <time>2015-09-07T12:16:21Z</time>
      </trkpt>
      <trkpt lat="43.64791" lon="6.93979">
        <ele>205.2</ele>
        <time>2015-09-07T12:16:23Z</time>
      </trkpt>
      <trkpt lat="43.64769" lon="6.93989">
        <ele>204.43</ele>
        <time>2015-09-07T12:16:25Z</time>
      </trkpt>
      <trkpt lat="43.64747" lon="6.93997">
        <ele>203.74</ele>
        <time>2015-09-07T12:16:27Z</time>
      </trkpt>
      <trkpt lat="43.64727" lon="6.94005">
        <ele>202.07</ele>
        <time>2015-09-07T12:16:29Z</time>
      </trkpt>
      <trkpt lat="43.64702" lon="6.94012">
        <ele>199.16</ele>
        <time>2015-09-07T12:16:32Z</time>
      </trkpt>
      <trkpt lat="43.64683" lon="6.94015">
        <ele>197.92</ele>
        <time>2015-09-07T12:16:34Z</time>
      </trkpt>
      <trkpt lat="43.64664" lon="6.94015">
        <ele>196.86</ele>
        <time>2015-09-07T12:16:36Z</time>
      </trkpt>
      <trkpt lat="43.64644" lon="6.94015">
        <ele>195.6</ele>
        <time>2015-09-07T12:16:38Z</time>
      </trkpt>
      <trkpt lat="43.64624" lon="6.94017">
        <ele>194.03</ele>
        <time>2015-09-07T12:16:40Z</time>
      </trkpt>
      <trkpt lat="43.64604" lon="6.94019">
        <ele>192.89</ele>
        <time>2015-09-07T12:16:42Z</time>
      </trkpt>
      <trkpt lat="43.64583" lon="6.94017">
        <ele>190.35</ele>
        <time>2015-09-07T12:16:44Z</time>
      </trkpt>
      <trkpt lat="43.64564" lon="6.94016">
        <ele>188.72</ele>
        <time>2015-09-07T12:16:46Z</time>
      </trkpt>
      <trkpt lat="43.64543" lon="6.94019">
        <ele>187.49</ele>
        <time>2015-09-07T12:16:49Z</time>
      </trkpt>
      <trkpt lat="43.64524" lon="6.94018">
        <ele>184.41</ele>
        <time>2015-09-07T12:16:56Z</time>
      </trkpt>
      <trkpt lat="43.64505" lon="6.94015">
        <ele>184.25</ele>
        <time>2015-09-07T12:17:00Z</time>
      </trkpt>
      <trkpt lat="43.6449" lon="6.94028">
        <ele>182.81</ele>
        <time>2015-09-07T12:17:03Z</time>
      </trkpt>
      <trkpt lat="43.64471" lon="6.94045">
        <ele>180.97</ele>
        <time>2015-09-07T12:17:07Z</time>
      </trkpt>
      <trkpt lat="43.64456" lon="6.94065">
        <ele>183.6</ele>
        <time>2015-09-07T12:17:11Z</time>
      </trkpt>
      <trkpt lat="43.64444" lon="6.94085">
        <ele>185.02</ele>
        <time>2015-09-07T12:17:15Z</time>
      </trkpt>
      <trkpt lat="43.64429" lon="6.94107">
        <ele>187.48</ele>
        <time>2015-09-07T12:17:19Z</time>
      </trkpt>
      <trkpt lat="43.64417" lon="6.94129">
        <ele>186.76</ele>
        <time>2015-09-07T12:17:23Z</time>
      </trkpt>
      <trkpt lat="43.64404" lon="6.94149">
        <ele>186.9</ele>
        <time>2015-09-07T12:17:27Z</time>
      </trkpt>
      <trkpt lat="43.6439" lon="6.94169">
        <ele>187.91</ele>
        <time>2015-09-07T12:17:31Z</time>
      </trkpt>
      <trkpt lat="43.64373" lon="6.94179">
        <ele>188.22</ele>
        <time>2015-09-07T12:17:35Z</time>
      </trkpt>
      <trkpt lat="43.64354" lon="6.94186">
        <ele>190.74</ele>
        <time>2015-09-07T12:17:39Z</time>
      </trkpt>
      <trkpt lat="43.64336" lon="6.94195">
        <ele>191.75</ele>
        <time>2015-09-07T12:17:42Z</time>
      </trkpt>
      <trkpt lat="43.64313" lon="6.94198">
        <ele>191.21</ele>
        <time>2015-09-07T12:17:46Z</time>
      </trkpt>
      <trkpt lat="43.64291" lon="6.94203">
        <ele>190.43</ele>
        <time>2015-09-07T12:17:50Z</time>
      </trkpt>
      <trkpt lat="43.64268" lon="6.94211">
        <ele>191.94</ele>
        <time>2015-09-07T12:17:54Z</time>
      </trkpt>
      <trkpt lat="43.64247" lon="6.94214">
        <ele>190.91</ele>
        <time>2015-09-07T12:17:58Z</time>
      </trkpt>
      <trkpt lat="43.64231" lon="6.94225">
        <ele>190.14</ele>
        <time>2015-09-07T12:18:01Z</time>
      </trkpt>
      <trkpt lat="43.64213" lon="6.9423">
        <ele>191.42</ele>
        <time>2015-09-07T12:18:04Z</time>
      </trkpt>
      <trkpt lat="43.64195" lon="6.9423">
        <ele>191.96</ele>
        <time>2015-09-07T12:18:07Z</time>
      </trkpt>
      <trkpt lat="43.64177" lon="6.94227">
        <ele>190.27</ele>
        <time>2015-09-07T12:18:10Z</time>
      </trkpt>
      <trkpt lat="43.64157" lon="6.94227">
        <ele>190.19</ele>
        <time>2015-09-07T12:18:13Z</time>
      </trkpt>
      <trkpt lat="43.64134" lon="6.9423">
        <ele>190.18</ele>
        <time>2015-09-07T12:18:17Z</time>
      </trkpt>
      <trkpt lat="43.64116" lon="6.94225">
        <ele>190.55</ele>
        <time>2015-09-07T12:18:20Z</time>
      </trkpt>
      <trkpt lat="43.64095" lon="6.94223">
        <ele>190.97</ele>
        <time>2015-09-07T12:18:23Z</time>
      </trkpt>
      <trkpt lat="43.64075" lon="6.94215">
        <ele>190.65</ele>
        <time>2015-09-07T12:18:26Z</time>
      </trkpt>
      <trkpt lat="43.64054" lon="6.94204">
        <ele>188.74</ele>
        <time>2015-09-07T12:18:29Z</time>
      </trkpt>
      <trkpt lat="43.64034" lon="6.94191">
        <ele>185.75</ele>
        <time>2015-09-07T12:18:32Z</time>
      </trkpt>
      <trkpt lat="43.64012" lon="6.94176">
        <ele>187.87</ele>
        <time>2015-09-07T12:18:35Z</time>
      </trkpt>
      <trkpt lat="43.63991" lon="6.94164">
        <ele>187.89</ele>
        <time>2015-09-07T12:18:38Z</time>
      </trkpt>
      <trkpt lat="43.63971" lon="6.94148">
        <ele>185.01</ele>
        <time>2015-09-07T12:18:41Z</time>
      </trkpt>
      <trkpt lat="43.63951" lon="6.94138">
        <ele>185.53</ele>
        <time>2015-09-07T12:18:44Z</time>
      </trkpt>
      <trkpt lat="43.63934" lon="6.94128">
        <ele>186.6</ele>
        <time>2015-09-07T12:18:47Z</time>
      </trkpt>
      <trkpt lat="43.63915" lon="6.94125">
        <ele>187.1</ele>
        <time>2015-09-07T12:18:50Z</time>
      </trkpt>
      <trkpt lat="43.63892" lon="6.94125">
        <ele>188.11</ele>
        <time>2015-09-07T12:18:54Z</time>
      </trkpt>
      <trkpt lat="43.63869" lon="6.94127">
        <ele>189.42</ele>
        <time>2015-09-07T12:18:58Z</time>
      </trkpt>
      <trkpt lat="43.6385" lon="6.94129">
        <ele>189.58</ele>
        <time>2015-09-07T12:19:01Z</time>
      </trkpt>
      <trkpt lat="43.63831" lon="6.94129">
        <ele>190.6</ele>
        <time>2015-09-07T12:19:04Z</time>
      </trkpt>
      <trkpt lat="43.63807" lon="6.94128">
        <ele>192.58</ele>
        <time>2015-09-07T12:19:08Z</time>
      </trkpt>
      <trkpt lat="43.6379" lon="6.94121">
        <ele>191.85</ele>
        <time>2015-09-07T12:19:11Z</time>
      </trkpt>
      <trkpt lat="43.63773" lon="6.9411">
        <ele>190.51</ele>
        <time>2015-09-07T12:19:14Z</time>
      </trkpt>
      <trkpt lat="43.6376" lon="6.94094">
        <ele>187.97</ele>
        <time>2015-09-07T12:19:17Z</time>
      </trkpt>
      <trkpt lat="43.63739" lon="6.94086">
        <ele>186.52</ele>
        <time>2015-09-07T12:19:20Z</time>
      </trkpt>
      <trkpt lat="43.63717" lon="6.94081">
        <ele>186.59</ele>
        <time>2015-09-07T12:19:23Z</time>
      </trkpt>
      <trkpt lat="43.63697" lon="6.94073">
        <ele>186.35</ele>
        <time>2015-09-07T12:19:26Z</time>
      </trkpt>
      <trkpt lat="43.63678" lon="6.94064">
        <ele>186.2</ele>
        <time>2015-09-07T12:19:29Z</time>
      </trkpt>
      <trkpt lat="43.63657" lon="6.9407">
        <ele>188.3</ele>
        <time>2015-09-07T12:19:33Z</time>
      </trkpt>
      <trkpt lat="43.63639" lon="6.94069">
        <ele>188.37</ele>
        <time>2015-09-07T12:19:37Z</time>
      </trkpt>
      <trkpt lat="43.63627" lon="6.94089">
        <ele>188.51</ele>
        <time>2015-09-07T12:19:43Z</time>
      </trkpt>
      <trkpt lat="43.63627" lon="6.94118">
        <ele>183.95</ele>
        <time>2015-09-07T12:20:07Z</time>
      </trkpt>
      <trkpt lat="43.63623" lon="6.94145">
        <ele>181.14</ele>
        <time>2015-09-07T12:20:12Z</time>
      </trkpt>
      <trkpt lat="43.63616" lon="6.9417">
        <ele>181.14</ele>
        <time>2015-09-07T12:20:17Z</time>
      </trkpt>
      <trkpt lat="43.63598" lon="6.9418">
        <ele>180.74</ele>
        <time>2015-09-07T12:20:22Z</time>
      </trkpt>
      <trkpt lat="43.63577" lon="6.94188">
        <ele>182.08</ele>
        <time>2015-09-07T12:20:28Z</time>
      </trkpt>
      <trkpt lat="43.63559" lon="6.942">
        <ele>180.96</ele>
        <time>2015-09-07T12:20:34Z</time>
      </trkpt>
      <trkpt lat="43.63542" lon="6.9421">
        <ele>181.83</ele>
        <time>2015-09-07T12:20:40Z</time>
      </trkpt>
      <trkpt lat="43.63525" lon="6.94218">
        <ele>185.28</ele>
        <time>2015-09-07T12:20:46Z</time>
      </trkpt>
      <trkpt lat="43.63506" lon="6.94226">
        <ele>189.08</ele>
        <time>2015-09-07T12:20:53Z</time>
      </trkpt>
      <trkpt lat="43.63487" lon="6.94233">
        <ele>191.39</ele>
        <time>2015-09-07T12:21:00Z</time>
      </trkpt>
      <trkpt lat="43.63467" lon="6.94236">
        <ele>195.04</ele>
        <time>2015-09-07T12:21:06Z</time>
      </trkpt>
      <trkpt lat="43.63447" lon="6.94246">
        <ele>195.16</ele>
        <time>2015-09-07T12:21:12Z</time>
      </trkpt>
      <trkpt lat="43.63427" lon="6.94257">
        <ele>197.36</ele>
        <time>2015-09-07T12:21:18Z</time>
      </trkpt>
      <trkpt lat="43.63407" lon="6.94263">
        <ele>198.88</ele>
        <time>2015-09-07T12:21:24Z</time>
      </trkpt>
      <trkpt lat="43.63386" lon="6.94265">
        <ele>199.12</ele>
        <time>2015-09-07T12:21:30Z</time>
      </trkpt>
      <trkpt lat="43.63365" lon="6.94275">
        <ele>203.71</ele>
        <time>2015-09-07T12:21:36Z</time>
      </trkpt>
      <trkpt lat="43.63346" lon="6.9428">
        <ele>204.57</ele>
        <time>2015-09-07T12:21:41Z</time>
      </trkpt>
      <trkpt lat="43.6332" lon="6.94286">
        <ele>203.56</ele>
        <time>2015-09-07T12:21:46Z</time>
      </trkpt>
      <trkpt lat="43.63301" lon="6.94286">
        <ele>199.89</ele>
        <time>2015-09-07T12:21:50Z</time>
      </trkpt>
      <trkpt lat="43.63282" lon="6.94286">
        <ele>199.6</ele>
        <time>2015-09-07T12:21:54Z</time>
      </trkpt>
      <trkpt lat="43.63262" lon="6.94283">
        <ele>199.89</ele>
        <time>2015-09-07T12:21:58Z</time>
      </trkpt>
      <trkpt lat="43.63242" lon="6.9427">
        <ele>199.03</ele>
        <time>2015-09-07T12:22:02Z</time>
      </trkpt>
      <trkpt lat="43.63225" lon="6.94258">
        <ele>198.73</ele>
        <time>2015-09-07T12:22:06Z</time>
      </trkpt>
      <trkpt lat="43.63208" lon="6.94248">
        <ele>197.62</ele>
        <time>2015-09-07T12:22:09Z</time>
      </trkpt>
      <trkpt lat="43.63187" lon="6.94238">
        <ele>195.27</ele>
        <time>2015-09-07T12:22:13Z</time>
      </trkpt>
      <trkpt lat="43.63169" lon="6.94231">
        <ele>194.31</ele>
        <time>2015-09-07T12:22:16Z</time>
      </trkpt>
      <trkpt lat="43.63151" lon="6.94225">
        <ele>195.19</ele>
        <time>2015-09-07T12:22:19Z</time>
      </trkpt>
      <trkpt lat="43.63131" lon="6.94232">
        <ele>194.68</ele>
        <time>2015-09-07T12:22:23Z</time>
      </trkpt>
      <trkpt lat="43.63114" lon="6.94246">
        <ele>192.08</ele>
        <time>2015-09-07T12:22:27Z</time>
      </trkpt>
      <trkpt lat="43.63093" lon="6.94258">
        <ele>190.55</ele>
        <time>2015-09-07T12:22:31Z</time>
      </trkpt>
      <trkpt lat="43.63073" lon="6.94263">
        <ele>191.14</ele>
        <time>2015-09-07T12:22:35Z</time>
      </trkpt>
      <trkpt lat="43.63052" lon="6.94277">
        <ele>190.55</ele>
        <time>2015-09-07T12:22:39Z</time>
      </trkpt>
      <trkpt lat="43.63031" lon="6.94284">
        <ele>191.07</ele>
        <time>2015-09-07T12:22:43Z</time>
      </trkpt>
      <trkpt lat="43.63009" lon="6.9429">
        <ele>189.36</ele>
        <time>2015-09-07T12:22:47Z</time>
      </trkpt>
      <trkpt lat="43.62988" lon="6.94301">
        <ele>188.44</ele>
        <time>2015-09-07T12:22:51Z</time>
      </trkpt>
      <trkpt lat="43.62974" lon="6.94318">
        <ele>186.83</ele>
        <time>2015-09-07T12:22:54Z</time>
      </trkpt>
      <trkpt lat="43.62954" lon="6.94336">
        <ele>187.15</ele>
        <time>2015-09-07T12:22:58Z</time>
      </trkpt>
      <trkpt lat="43.62936" lon="6.94345">
        <ele>184.92</ele>
        <time>2015-09-07T12:23:02Z</time>
      </trkpt>
      <trkpt lat="43.62918" lon="6.94357">
        <ele>183.79</ele>
        <time>2015-09-07T12:23:06Z</time>
      </trkpt>
      <trkpt lat="43.62901" lon="6.94373">
        <ele>183.34</ele>
        <time>2015-09-07T12:23:10Z</time>
      </trkpt>
      <trkpt lat="43.62885" lon="6.94387">
        <ele>183.5</ele>
        <time>2015-09-07T12:23:14Z</time>
      </trkpt>
      <trkpt lat="43.62862" lon="6.94392">
        <ele>179.02</ele>
        <time>2015-09-07T12:23:20Z</time>
      </trkpt>
      <trkpt lat="43.62842" lon="6.94392">
        <ele>181.67</ele>
        <time>2015-09-07T12:23:24Z</time>
      </trkpt>
      <trkpt lat="43.62824" lon="6.9439">
        <ele>179.83</ele>
        <time>2015-09-07T12:23:28Z</time>
      </trkpt>
      <trkpt lat="43.62801" lon="6.94385">
        <ele>179.28</ele>
        <time>2015-09-07T12:23:32Z</time>
      </trkpt>
      <trkpt lat="43.6278" lon="6.94385">
        <ele>179.31</ele>
        <time>2015-09-07T12:23:35Z</time>
      </trkpt>
      <trkpt lat="43.62757" lon="6.94383">
        <ele>179.19</ele>
        <time>2015-09-07T12:23:38Z</time>
      </trkpt>
      <trkpt lat="43.62731" lon="6.9438">
        <ele>177.93</ele>
        <time>2015-09-07T12:23:41Z</time>
      </trkpt>
      <trkpt lat="43.62705" lon="6.94378">
        <ele>176.77</ele>
        <time>2015-09-07T12:23:44Z</time>
      </trkpt>
      <trkpt lat="43.62678" lon="6.94384">
        <ele>174.63</ele>
        <time>2015-09-07T12:23:47Z</time>
      </trkpt>
      <trkpt lat="43.62659" lon="6.94388">
        <ele>173.54</ele>
        <time>2015-09-07T12:23:49Z</time>
      </trkpt>
      <trkpt lat="43.6264" lon="6.94388">
        <ele>172.52</ele>
        <time>2015-09-07T12:23:51Z</time>
      </trkpt>
      <trkpt lat="43.62614" lon="6.94388">
        <ele>172.22</ele>
        <time>2015-09-07T12:23:54Z</time>
      </trkpt>
      <trkpt lat="43.62589" lon="6.94391">
        <ele>169.81</ele>
        <time>2015-09-07T12:23:57Z</time>
      </trkpt>
      <trkpt lat="43.62569" lon="6.94387">
        <ele>168.38</ele>
        <time>2015-09-07T12:24:00Z</time>
      </trkpt>
      <trkpt lat="43.62547" lon="6.94385">
        <ele>169.31</ele>
        <time>2015-09-07T12:24:04Z</time>
      </trkpt>
      <trkpt lat="43.62527" lon="6.94376">
        <ele>171.5</ele>
        <time>2015-09-07T12:24:08Z</time>
      </trkpt>
      <trkpt lat="43.62506" lon="6.94377">
        <ele>173.76</ele>
        <time>2015-09-07T12:24:12Z</time>
      </trkpt>
      <trkpt lat="43.62486" lon="6.94385">
        <ele>175.02</ele>
        <time>2015-09-07T12:24:16Z</time>
      </trkpt>
      <trkpt lat="43.62468" lon="6.9439">
        <ele>175.16</ele>
        <time>2015-09-07T12:24:19Z</time>
      </trkpt>
      <trkpt lat="43.62449" lon="6.94405">
        <ele>175.17</ele>
        <time>2015-09-07T12:24:22Z</time>
      </trkpt>
      <trkpt lat="43.62422" lon="6.94417">
        <ele>172.68</ele>
        <time>2015-09-07T12:24:25Z</time>
      </trkpt>
      <trkpt lat="43.62404" lon="6.94425">
        <ele>172.8</ele>
        <time>2015-09-07T12:24:27Z</time>
      </trkpt>
      <trkpt lat="43.62385" lon="6.94437">
        <ele>173.08</ele>
        <time>2015-09-07T12:24:29Z</time>
      </trkpt>
      <trkpt lat="43.62366" lon="6.94446">
        <ele>170.65</ele>
        <time>2015-09-07T12:24:31Z</time>
      </trkpt>
      <trkpt lat="43.62345" lon="6.94453">
        <ele>169.05</ele>
        <time>2015-09-07T12:24:33Z</time>
      </trkpt>
      <trkpt lat="43.62325" lon="6.9446">
        <ele>168.64</ele>
        <time>2015-09-07T12:24:35Z</time>
      </trkpt>
      <trkpt lat="43.62306" lon="6.94466">
        <ele>167.79</ele>
        <time>2015-09-07T12:24:37Z</time>
      </trkpt>
      <trkpt lat="43.62279" lon="6.94472">
        <ele>166</ele>
        <time>2015-09-07T12:24:40Z</time>
      </trkpt>
      <trkpt lat="43.62259" lon="6.94471">
        <ele>165.38</ele>
        <time>2015-09-07T12:24:42Z</time>
      </trkpt>
      <trkpt lat="43.62236" lon="6.94471">
        <ele>164.73</ele>
        <time>2015-09-07T12:24:44Z</time>
      </trkpt>
      <trkpt lat="43.62216" lon="6.94467">
        <ele>163.81</ele>
        <time>2015-09-07T12:24:46Z</time>
      </trkpt>
      <trkpt lat="43.62193" lon="6.94465">
        <ele>161.84</ele>
        <time>2015-09-07T12:24:48Z</time>
      </trkpt>
      <trkpt lat="43.62172" lon="6.94463">
        <ele>159.84</ele>
        <time>2015-09-07T12:24:50Z</time>
      </trkpt>
      <trkpt lat="43.62153" lon="6.9446">
        <ele>154.59</ele>
        <time>2015-09-07T12:24:52Z</time>
      </trkpt>
      <trkpt lat="43.6213" lon="6.94457">
        <ele>151.98</ele>
        <time>2015-09-07T12:24:55Z</time>
      </trkpt>
      <trkpt lat="43.62111" lon="6.94458">
        <ele>148.21</ele>
        <time>2015-09-07T12:25:02Z</time>
      </trkpt>
      <trkpt lat="43.62091" lon="6.94452">
        <ele>149.6</ele>
        <time>2015-09-07T12:25:08Z</time>
      </trkpt>
      <trkpt lat="43.62073" lon="6.94448">
        <ele>146.4</ele>
        <time>2015-09-07T12:25:14Z</time>
      </trkpt>
      <trkpt lat="43.62054" lon="6.94447">
        <ele>149.33</ele>
        <time>2015-09-07T12:25:21Z</time>
      </trkpt>
      <trkpt lat="43.62036" lon="6.94441">
        <ele>152.88</ele>
        <time>2015-09-07T12:25:28Z</time>
      </trkpt>
      <trkpt lat="43.62018" lon="6.94439">
        <ele>154.78</ele>
        <time>2015-09-07T12:25:36Z</time>
      </trkpt>
      <trkpt lat="43.61999" lon="6.94438">
        <ele>155.5</ele>
        <time>2015-09-07T12:25:45Z</time>
      </trkpt>
      <trkpt lat="43.61979" lon="6.94438">
        <ele>155.56</ele>
        <time>2015-09-07T12:25:54Z</time>
      </trkpt>
      <trkpt lat="43.61959" lon="6.94437">
        <ele>154.08</ele>
        <time>2015-09-07T12:26:01Z</time>
      </trkpt>
      <trkpt lat="43.6194" lon="6.94432">
        <ele>155.96</ele>
        <time>2015-09-07T12:26:07Z</time>
      </trkpt>
      <trkpt lat="43.6192" lon="6.94431">
        <ele>153.04</ele>
        <time>2015-09-07T12:26:12Z</time>
      </trkpt>
      <trkpt lat="43.61896" lon="6.94426">
        <ele>152.2</ele>
        <time>2015-09-07T12:26:17Z</time>
      </trkpt>
      <trkpt lat="43.61877" lon="6.9441">
        <ele>150.8</ele>
        <time>2015-09-07T12:26:21Z</time>
      </trkpt>
      <trkpt lat="43.61873" lon="6.94383">
        <ele>150.91</ele>
        <time>2015-09-07T12:26:26Z</time>
      </trkpt>
      <trkpt lat="43.61878" lon="6.94357">
        <ele>150.89</ele>
        <time>2015-09-07T12:26:31Z</time>
      </trkpt>
      <trkpt lat="43.61883" lon="6.94329">
        <ele>151.07</ele>
        <time>2015-09-07T12:26:36Z</time>
      </trkpt>
      <trkpt lat="43.61889" lon="6.94302">
        <ele>149.28</ele>
        <time>2015-09-07T12:26:42Z</time>
      </trkpt>
      <trkpt lat="43.61894" lon="6.94276">
        <ele>143.98</ele>
        <time>2015-09-07T12:26:49Z</time>
      </trkpt>
      <trkpt lat="43.61898" lon="6.94252">
        <ele>139.84</ele>
        <time>2015-09-07T12:26:58Z</time>
      </trkpt>
      <trkpt lat="43.61906" lon="6.94229">
        <ele>129.3</ele>
        <time>2015-09-07T12:27:24Z</time>
      </trkpt>
      <trkpt lat="43.61912" lon="6.94206">
        <ele>125.46</ele>
        <time>2015-09-07T12:27:45Z</time>
      </trkpt>
      <trkpt lat="43.61933" lon="6.94202">
        <ele>124.26</ele>
        <time>2015-09-07T12:27:51Z</time>
      </trkpt>
      <trkpt lat="43.61953" lon="6.94204">
        <ele>131.15</ele>
        <time>2015-09-07T12:27:56Z</time>
      </trkpt>
      <trkpt lat="43.61971" lon="6.94208">
        <ele>130.55</ele>
        <time>2015-09-07T12:27:59Z</time>
      </trkpt>
      <trkpt lat="43.61996" lon="6.94209">
        <ele>125.76</ele>
        <time>2015-09-07T12:28:03Z</time>
      </trkpt>
      <trkpt lat="43.62014" lon="6.94204">
        <ele>123.75</ele>
        <time>2015-09-07T12:28:06Z</time>
      </trkpt>
      <trkpt lat="43.62031" lon="6.94196">
        <ele>122.37</ele>
        <time>2015-09-07T12:28:09Z</time>
      </trkpt>
      <trkpt lat="43.62052" lon="6.94187">
        <ele>119.25</ele>
        <time>2015-09-07T12:28:13Z</time>
      </trkpt>
      <trkpt lat="43.62071" lon="6.9418">
        <ele>117.06</ele>
        <time>2015-09-07T12:28:16Z</time>
      </trkpt>
      <trkpt lat="43.62088" lon="6.94164">
        <ele>114.79</ele>
        <time>2015-09-07T12:28:20Z</time>
      </trkpt>
      <trkpt lat="43.62094" lon="6.94137">
        <ele>114.21</ele>
        <time>2015-09-07T12:28:24Z</time>
      </trkpt>
      <trkpt lat="43.62091" lon="6.9411">
        <ele>115.77</ele>
        <time>2015-09-07T12:28:29Z</time>
      </trkpt>
      <trkpt lat="43.62073" lon="6.94101">
        <ele>113.76</ele>
        <time>2015-09-07T12:28:58Z</time>
      </trkpt>
      <trkpt lat="43.62053" lon="6.94096">
        <ele>114.39</ele>
        <time>2015-09-07T12:29:05Z</time>
      </trkpt>
      <trkpt lat="43.62034" lon="6.94087">
        <ele>115.04</ele>
        <time>2015-09-07T12:29:12Z</time>
      </trkpt>
      <trkpt lat="43.62016" lon="6.94074">
        <ele>113.96</ele>
        <time>2015-09-07T12:29:19Z</time>
      </trkpt>
      <trkpt lat="43.61998" lon="6.94061">
        <ele>117.06</ele>
        <time>2015-09-07T12:29:26Z</time>
      </trkpt>
      <trkpt lat="43.61981" lon="6.94047">
        <ele>120.75</ele>
        <time>2015-09-07T12:29:33Z</time>
      </trkpt>
      <trkpt lat="43.61968" lon="6.94027">
        <ele>123.97</ele>
        <time>2015-09-07T12:29:40Z</time>
      </trkpt>
      <trkpt lat="43.61961" lon="6.94004">
        <ele>123.27</ele>
        <time>2015-09-07T12:29:48Z</time>
      </trkpt>
      <trkpt lat="43.61957" lon="6.93978">
        <ele>124.53</ele>
        <time>2015-09-07T12:29:56Z</time>
      </trkpt>
      <trkpt lat="43.6196" lon="6.93951">
        <ele>126.1</ele>
        <time>2015-09-07T12:30:04Z</time>
      </trkpt>
      <trkpt lat="43.61966" lon="6.93926">
        <ele>126.92</ele>
        <time>2015-09-07T12:30:12Z</time>
      </trkpt>
      <trkpt lat="43.61976" lon="6.93904">
        <ele>129.63</ele>
        <time>2015-09-07T12:30:20Z</time>
      </trkpt>
      <trkpt lat="43.61986" lon="6.9388">
        <ele>131.16</ele>
        <time>2015-09-07T12:30:29Z</time>
      </trkpt>
      <trkpt lat="43.61998" lon="6.93861">
        <ele>131.15</ele>
        <time>2015-09-07T12:31:16Z</time>
      </trkpt>
      <trkpt lat="43.62011" lon="6.93843">
        <ele>132.55</ele>
        <time>2015-09-07T12:31:27Z</time>
      </trkpt>
      <trkpt lat="43.62027" lon="6.93826">
        <ele>130.63</ele>
        <time>2015-09-07T12:31:37Z</time>
      </trkpt>
      <trkpt lat="43.62043" lon="6.93811">
        <ele>135.37</ele>
        <time>2015-09-07T12:31:45Z</time>
      </trkpt>
      <trkpt lat="43.62059" lon="6.93792">
        <ele>137.59</ele>
        <time>2015-09-07T12:31:52Z</time>
      </trkpt>
      <trkpt lat="43.62071" lon="6.93774">
        <ele>137.96</ele>
        <time>2015-09-07T12:31:58Z</time>
      </trkpt>
      <trkpt lat="43.62084" lon="6.93754">
        <ele>137.95</ele>
        <time>2015-09-07T12:32:04Z</time>
      </trkpt>
      <trkpt lat="43.62095" lon="6.93733">
        <ele>138.1</ele>
        <time>2015-09-07T12:32:11Z</time>
      </trkpt>
      <trkpt lat="43.6208" lon="6.93716">
        <ele>140.2</ele>
        <time>2015-09-07T12:32:18Z</time>
      </trkpt>
      <trkpt lat="43.62061" lon="6.93723">
        <ele>138.36</ele>
        <time>2015-09-07T12:32:22Z</time>
      </trkpt>
      <trkpt lat="43.6204" lon="6.93724">
        <ele>137.49</ele>
        <time>2015-09-07T12:32:27Z</time>
      </trkpt>
      <trkpt lat="43.62019" lon="6.93719">
        <ele>140.79</ele>
        <time>2015-09-07T12:32:33Z</time>
      </trkpt>
      <trkpt lat="43.62002" lon="6.93707">
        <ele>142.86</ele>
        <time>2015-09-07T12:32:39Z</time>
      </trkpt>
      <trkpt lat="43.61983" lon="6.93698">
        <ele>144.55</ele>
        <time>2015-09-07T12:32:45Z</time>
      </trkpt>
      <trkpt lat="43.61964" lon="6.93694">
        <ele>146.15</ele>
        <time>2015-09-07T12:32:51Z</time>
      </trkpt>
      <trkpt lat="43.61946" lon="6.93703">
        <ele>145.93</ele>
        <time>2015-09-07T12:32:58Z</time>
      </trkpt>
      <trkpt lat="43.61928" lon="6.93718">
        <ele>146.57</ele>
        <time>2015-09-07T12:33:05Z</time>
      </trkpt>
      <trkpt lat="43.61918" lon="6.9374">
        <ele>147.62</ele>
        <time>2015-09-07T12:33:11Z</time>
      </trkpt>
      <trkpt lat="43.61904" lon="6.9376">
        <ele>147.54</ele>
        <time>2015-09-07T12:33:17Z</time>
      </trkpt>
      <trkpt lat="43.61886" lon="6.93765">
        <ele>147.48</ele>
        <time>2015-09-07T12:33:23Z</time>
      </trkpt>
      <trkpt lat="43.61867" lon="6.93773">
        <ele>142.44</ele>
        <time>2015-09-07T12:34:06Z</time>
      </trkpt>
      <trkpt lat="43.61851" lon="6.93787">
        <ele>141.46</ele>
        <time>2015-09-07T12:34:17Z</time>
      </trkpt>
      <trkpt lat="43.61844" lon="6.93811">
        <ele>139.56</ele>
        <time>2015-09-07T12:34:25Z</time>
      </trkpt>
      <trkpt lat="43.61844" lon="6.93838">
        <ele>136.47</ele>
        <time>2015-09-07T12:34:30Z</time>
      </trkpt>
      <trkpt lat="43.6183" lon="6.93854">
        <ele>135.12</ele>
        <time>2015-09-07T12:34:39Z</time>
      </trkpt>
      <trkpt lat="43.61813" lon="6.93845">
        <ele>125.05</ele>
        <time>2015-09-07T12:34:50Z</time>
      </trkpt>
      <trkpt lat="43.61795" lon="6.93833">
        <ele>115.48</ele>
        <time>2015-09-07T12:34:59Z</time>
      </trkpt>
      <trkpt lat="43.61781" lon="6.9385">
        <ele>111.6</ele>
        <time>2015-09-07T12:35:08Z</time>
      </trkpt>
      <trkpt lat="43.61771" lon="6.93872">
        <ele>104.01</ele>
        <time>2015-09-07T12:35:18Z</time>
      </trkpt>
      <trkpt lat="43.61781" lon="6.93894">
        <ele>107.37</ele>
        <time>2015-09-07T12:35:42Z</time>
      </trkpt>
      <trkpt lat="43.61769" lon="6.93916">
        <ele>102.96</ele>
        <time>2015-09-07T12:35:55Z</time>
      </trkpt>
      <trkpt lat="43.61767" lon="6.93942">
        <ele>99.8</ele>
        <time>2015-09-07T12:36:14Z</time>
      </trkpt>
      <trkpt lat="43.61781" lon="6.9396">
        <ele>100.61</ele>
        <time>2015-09-07T12:36:24Z</time>
      </trkpt>
      <trkpt lat="43.61799" lon="6.9397">
        <ele>100.16</ele>
        <time>2015-09-07T12:36:33Z</time>
      </trkpt>
      <trkpt lat="43.61816" lon="6.93982">
        <ele>101.32</ele>
        <time>2015-09-07T12:36:42Z</time>
      </trkpt>
      <trkpt lat="43.61834" lon="6.9399">
        <ele>101.42</ele>
        <time>2015-09-07T12:36:51Z</time>
      </trkpt>
      <trkpt lat="43.61839" lon="6.94015">
        <ele>103.39</ele>
        <time>2015-09-07T12:37:01Z</time>
      </trkpt>
      <trkpt lat="43.61824" lon="6.94027">
        <ele>99.74</ele>
        <time>2015-09-07T12:37:11Z</time>
      </trkpt>
      <trkpt lat="43.61805" lon="6.9403">
        <ele>101.9</ele>
        <time>2015-09-07T12:37:17Z</time>
      </trkpt>
      <trkpt lat="43.61788" lon="6.94021">
        <ele>102.68</ele>
        <time>2015-09-07T12:37:24Z</time>
      </trkpt>
      <trkpt lat="43.61768" lon="6.94017">
        <ele>99.32</ele>
        <time>2015-09-07T12:37:31Z</time>
      </trkpt>
      <trkpt lat="43.61749" lon="6.94014">
        <ele>98.68</ele>
        <time>2015-09-07T12:37:36Z</time>
      </trkpt>
      <trkpt lat="43.61727" lon="6.94014">
        <ele>94.91</ele>
        <time>2015-09-07T12:37:41Z</time>
      </trkpt>
      <trkpt lat="43.61707" lon="6.94022">
        <ele>93.76</ele>
        <time>2015-09-07T12:37:46Z</time>
      </trkpt>
      <trkpt lat="43.61691" lon="6.94035">
        <ele>96.92</ele>
        <time>2015-09-07T12:37:58Z</time>
      </trkpt>
      <trkpt lat="43.61673" lon="6.94045">
        <ele>97.42</ele>
        <time>2015-09-07T12:38:05Z</time>
      </trkpt>
      <trkpt lat="43.61653" lon="6.94052">
        <ele>97.23</ele>
        <time>2015-09-07T12:38:12Z</time>
      </trkpt>
      <trkpt lat="43.61645" lon="6.9403">
        <ele>93.86</ele>
        <time>2015-09-07T12:38:22Z</time>
      </trkpt>
      <trkpt lat="43.61637" lon="6.93999">
        <ele>90.09</ele>
        <time>2015-09-07T12:38:28Z</time>
      </trkpt>
      <trkpt lat="43.61628" lon="6.93975">
        <ele>87.17</ele>
        <time>2015-09-07T12:38:33Z</time>
      </trkpt>
      <trkpt lat="43.6161" lon="6.93968">
        <ele>85.93</ele>
        <time>2015-09-07T12:38:37Z</time>
      </trkpt>
      <trkpt lat="43.61596" lon="6.93944">
        <ele>85.66</ele>
        <time>2015-09-07T12:38:41Z</time>
      </trkpt>
      <trkpt lat="43.61583" lon="6.93926">
        <ele>85.63</ele>
        <time>2015-09-07T12:38:46Z</time>
      </trkpt>
      <trkpt lat="43.61567" lon="6.93913">
        <ele>86.07</ele>
        <time>2015-09-07T12:38:54Z</time>
      </trkpt>
      <trkpt lat="43.61551" lon="6.93902">
        <ele>87.42</ele>
        <time>2015-09-07T12:39:01Z</time>
      </trkpt>
      <trkpt lat="43.61536" lon="6.93887">
        <ele>90.31</ele>
        <time>2015-09-07T12:39:08Z</time>
      </trkpt>
      <trkpt lat="43.61526" lon="6.93865">
        <ele>90.18</ele>
        <time>2015-09-07T12:39:14Z</time>
      </trkpt>
      <trkpt lat="43.61511" lon="6.93851">
        <ele>90.24</ele>
        <time>2015-09-07T12:39:19Z</time>
      </trkpt>
      <trkpt lat="43.61492" lon="6.93848">
        <ele>88.43</ele>
        <time>2015-09-07T12:39:22Z</time>
      </trkpt>
      <trkpt lat="43.61472" lon="6.93849">
        <ele>87.5</ele>
        <time>2015-09-07T12:39:26Z</time>
      </trkpt>
      <trkpt lat="43.61453" lon="6.93834">
        <ele>85.82</ele>
        <time>2015-09-07T12:39:30Z</time>
      </trkpt>
      <trkpt lat="43.61438" lon="6.93811">
        <ele>82.65</ele>
        <time>2015-09-07T12:39:34Z</time>
      </trkpt>
      <trkpt lat="43.6142" lon="6.93809">
        <ele>83.82</ele>
        <time>2015-09-07T12:39:39Z</time>
      </trkpt>
      <trkpt lat="43.61409" lon="6.93788">
        <ele>85.12</ele>
        <time>2015-09-07T12:39:50Z</time>
      </trkpt>
      <trkpt lat="43.61427" lon="6.93777">
        <ele>84.19</ele>
        <time>2015-09-07T12:39:56Z</time>
      </trkpt>
      <trkpt lat="43.61439" lon="6.93757">
        <ele>83.98</ele>
        <time>2015-09-07T12:40:05Z</time>
      </trkpt>
      <trkpt lat="43.61419" lon="6.9376">
        <ele>87.63</ele>
        <time>2015-09-07T12:40:16Z</time>
      </trkpt>
      <trkpt lat="43.61401" lon="6.93757">
        <ele>92.76</ele>
        <time>2015-09-07T12:40:25Z</time>
      </trkpt>
      <trkpt lat="43.61418" lon="6.93753">
        <ele>94.95</ele>
        <time>2015-09-07T12:40:41Z</time>
      </trkpt>
      <trkpt lat="43.61422" lon="6.93778">
        <ele>94.07</ele>
        <time>2015-09-07T12:40:49Z</time>
      </trkpt>
      <trkpt lat="43.61426" lon="6.93806">
        <ele>87.56</ele>
        <time>2015-09-07T12:40:57Z</time>
      </trkpt>
      <trkpt lat="43.61428" lon="6.93781">
        <ele>89.75</ele>
        <time>2015-09-07T12:41:38Z</time>
      </trkpt>
      <trkpt lat="43.61441" lon="6.93764">
        <ele>89.72</ele>
        <time>2015-09-07T12:41:49Z</time>
      </trkpt>
      <trkpt lat="43.61426" lon="6.93751">
        <ele>90.89</ele>
        <time>2015-09-07T12:42:00Z</time>
      </trkpt>
      <trkpt lat="43.6141" lon="6.93764">
        <ele>92.89</ele>
        <time>2015-09-07T12:42:11Z</time>
      </trkpt>
      <trkpt lat="43.614" lon="6.93743">
        <ele>94.07</ele>
        <time>2015-09-07T12:42:24Z</time>
      </trkpt>
      <trkpt lat="43.6139" lon="6.93723">
        <ele>97.79</ele>
        <time>2015-09-07T12:42:35Z</time>
      </trkpt>
      <trkpt lat="43.61371" lon="6.93721">
        <ele>98.58</ele>
        <time>2015-09-07T12:42:45Z</time>
      </trkpt>
      <trkpt lat="43.61359" lon="6.93701">
        <ele>103.75</ele>
        <time>2015-09-07T12:43:47Z</time>
      </trkpt>
      <trkpt lat="43.61347" lon="6.93682">
        <ele>105.23</ele>
        <time>2015-09-07T12:43:55Z</time>
      </trkpt>
      <trkpt lat="43.61334" lon="6.93663">
        <ele>108.12</ele>
        <time>2015-09-07T12:44:04Z</time>
      </trkpt>
      <trkpt lat="43.61321" lon="6.93643">
        <ele>110.09</ele>
        <time>2015-09-07T12:44:13Z</time>
      </trkpt>
      <trkpt lat="43.61307" lon="6.93625">
        <ele>111.16</ele>
        <time>2015-09-07T12:44:23Z</time>
      </trkpt>
      <trkpt lat="43.61289" lon="6.9362">
        <ele>113.67</ele>
        <time>2015-09-07T12:44:33Z</time>
      </trkpt>
      <trkpt lat="43.61271" lon="6.93629">
        <ele>112.37</ele>
        <time>2015-09-07T12:44:42Z</time>
      </trkpt>
      <trkpt lat="43.61256" lon="6.93645">
        <ele>112.58</ele>
        <time>2015-09-07T12:44:52Z</time>
      </trkpt>
      <trkpt lat="43.61236" lon="6.93642">
        <ele>110.84</ele>
        <time>2015-09-07T12:44:59Z</time>
      </trkpt>
      <trkpt lat="43.61215" lon="6.93648">
        <ele>110.08</ele>
        <time>2015-09-07T12:45:07Z</time>
      </trkpt>
      <trkpt lat="43.61196" lon="6.93659">
        <ele>110.22</ele>
        <time>2015-09-07T12:45:13Z</time>
      </trkpt>
      <trkpt lat="43.61176" lon="6.93673">
        <ele>111.65</ele>
        <time>2015-09-07T12:45:19Z</time>
      </trkpt>
      <trkpt lat="43.61159" lon="6.93688">
        <ele>106.14</ele>
        <time>2015-09-07T12:45:23Z</time>
      </trkpt>
      <trkpt lat="43.61144" lon="6.93705">
        <ele>104.61</ele>
        <time>2015-09-07T12:45:28Z</time>
      </trkpt>
      <trkpt lat="43.61126" lon="6.93708">
        <ele>103.27</ele>
        <time>2015-09-07T12:45:32Z</time>
      </trkpt>
      <trkpt lat="43.61105" lon="6.93702">
        <ele>102.31</ele>
        <time>2015-09-07T12:45:36Z</time>
      </trkpt>
      <trkpt lat="43.61087" lon="6.93702">
        <ele>101.21</ele>
        <time>2015-09-07T12:45:41Z</time>
      </trkpt>
      <trkpt lat="43.6107" lon="6.9371">
        <ele>100.43</ele>
        <time>2015-09-07T12:45:46Z</time>
      </trkpt>
      <trkpt lat="43.61049" lon="6.93716">
        <ele>98.18</ele>
        <time>2015-09-07T12:45:51Z</time>
      </trkpt>
      <trkpt lat="43.61032" lon="6.93731">
        <ele>96.93</ele>
        <time>2015-09-07T12:45:55Z</time>
      </trkpt>
      <trkpt lat="43.61022" lon="6.93752">
        <ele>98.14</ele>
        <time>2015-09-07T12:46:00Z</time>
      </trkpt>
      <trkpt lat="43.61005" lon="6.93765">
        <ele>99.16</ele>
        <time>2015-09-07T12:46:08Z</time>
      </trkpt>
      <trkpt lat="43.60987" lon="6.93777">
        <ele>97.74</ele>
        <time>2015-09-07T12:46:16Z</time>
      </trkpt>
      <trkpt lat="43.60973" lon="6.93794">
        <ele>94.51</ele>
        <time>2015-09-07T12:46:25Z</time>
      </trkpt>
      <trkpt lat="43.60959" lon="6.93811">
        <ele>89.05</ele>
        <time>2015-09-07T12:46:32Z</time>
      </trkpt>
      <trkpt lat="43.60948" lon="6.9383">
        <ele>89.05</ele>
        <time>2015-09-07T12:46:37Z</time>
      </trkpt>
      <trkpt lat="43.60947" lon="6.93856">
        <ele>87.47</ele>
        <time>2015-09-07T12:46:43Z</time>
      </trkpt>
      <trkpt lat="43.60942" lon="6.93881">
        <ele>84.02</ele>
        <time>2015-09-07T12:46:50Z</time>
      </trkpt>
      <trkpt lat="43.60931" lon="6.93905">
        <ele>78.29</ele>
        <time>2015-09-07T12:46:57Z</time>
      </trkpt>
      <trkpt lat="43.60932" lon="6.93935">
        <ele>73.75</ele>
        <time>2015-09-07T12:47:01Z</time>
      </trkpt>
      <trkpt lat="43.60941" lon="6.93958">
        <ele>72.07</ele>
        <time>2015-09-07T12:47:06Z</time>
      </trkpt>
      <trkpt lat="43.60946" lon="6.93983">
        <ele>69.83</ele>
        <time>2015-09-07T12:47:13Z</time>
      </trkpt>
      <trkpt lat="43.60928" lon="6.93987">
        <ele>61.69</ele>
        <time>2015-09-07T12:47:25Z</time>
      </trkpt>
      <trkpt lat="43.60944" lon="6.94">
        <ele>61.61</ele>
        <time>2015-09-07T12:47:34Z</time>
      </trkpt>
      <trkpt lat="43.60963" lon="6.94005">
        <ele>61.67</ele>
        <time>2015-09-07T12:47:40Z</time>
      </trkpt>
      <trkpt lat="43.60973" lon="6.94027">
        <ele>59.1</ele>
        <time>2015-09-07T12:48:00Z</time>
      </trkpt>
      <trkpt lat="43.60955" lon="6.94028">
        <ele>52.52</ele>
        <time>2015-09-07T12:48:10Z</time>
      </trkpt>
      <trkpt lat="43.60937" lon="6.94019">
        <ele>52.18</ele>
        <time>2015-09-07T12:48:17Z</time>
      </trkpt>
      <trkpt lat="43.60919" lon="6.94005">
        <ele>51.97</ele>
        <time>2015-09-07T12:48:24Z</time>
      </trkpt>
      <trkpt lat="43.609" lon="6.93999">
        <ele>52.08</ele>
        <time>2015-09-07T12:48:31Z</time>
      </trkpt>
      <trkpt lat="43.60882" lon="6.93991">
        <ele>52.36</ele>
        <time>2015-09-07T12:48:38Z</time>
      </trkpt>
      <trkpt lat="43.60867" lon="6.93973">
        <ele>50.57</ele>
        <time>2015-09-07T12:48:45Z</time>
      </trkpt>
      <trkpt lat="43.60857" lon="6.93949">
        <ele>49.31</ele>
        <time>2015-09-07T12:48:53Z</time>
      </trkpt>
      <trkpt lat="43.60838" lon="6.93959">
        <ele>46.56</ele>
        <time>2015-09-07T12:49:02Z</time>
      </trkpt>
      <trkpt lat="43.60826" lon="6.9398">
        <ele>46.32</ele>
        <time>2015-09-07T12:49:08Z</time>
      </trkpt>
      <trkpt lat="43.60818" lon="6.94007">
        <ele>45.71</ele>
        <time>2015-09-07T12:49:13Z</time>
      </trkpt>
      <trkpt lat="43.60813" lon="6.94034">
        <ele>44.22</ele>
        <time>2015-09-07T12:49:18Z</time>
      </trkpt>
      <trkpt lat="43.6081" lon="6.94063">
        <ele>44.68</ele>
        <time>2015-09-07T12:49:23Z</time>
      </trkpt>
      <trkpt lat="43.60808" lon="6.94092">
        <ele>47.19</ele>
        <time>2015-09-07T12:49:28Z</time>
      </trkpt>
      <trkpt lat="43.60806" lon="6.94119">
        <ele>49.4</ele>
        <time>2015-09-07T12:49:33Z</time>
      </trkpt>
      <trkpt lat="43.60806" lon="6.94146">
        <ele>52.06</ele>
        <time>2015-09-07T12:49:38Z</time>
      </trkpt>
      <trkpt lat="43.6081" lon="6.94173">
        <ele>53.11</ele>
        <time>2015-09-07T12:49:42Z</time>
      </trkpt>
      <trkpt lat="43.60798" lon="6.94151">
        <ele>55.87</ele>
        <time>2015-09-07T12:50:01Z</time>
      </trkpt>
      <trkpt lat="43.60792" lon="6.94126">
        <ele>56.93</ele>
        <time>2015-09-07T12:50:19Z</time>
      </trkpt>
      <trkpt lat="43.60784" lon="6.94103">
        <ele>60.01</ele>
        <time>2015-09-07T12:50:29Z</time>
      </trkpt>
      <trkpt lat="43.60773" lon="6.94081">
        <ele>63.97</ele>
        <time>2015-09-07T12:50:39Z</time>
      </trkpt>
      <trkpt lat="43.60768" lon="6.94057">
        <ele>66.63</ele>
        <time>2015-09-07T12:50:49Z</time>
      </trkpt>
      <trkpt lat="43.60767" lon="6.94031">
        <ele>69.26</ele>
        <time>2015-09-07T12:51:00Z</time>
      </trkpt>
      <trkpt lat="43.60766" lon="6.94006">
        <ele>72.03</ele>
        <time>2015-09-07T12:51:09Z</time>
      </trkpt>
      <trkpt lat="43.60758" lon="6.93983">
        <ele>73.09</ele>
        <time>2015-09-07T12:51:19Z</time>
      </trkpt>
      <trkpt lat="43.60747" lon="6.93961">
        <ele>74.17</ele>
        <time>2015-09-07T12:51:29Z</time>
      </trkpt>
      <trkpt lat="43.60746" lon="6.93936">
        <ele>75.79</ele>
        <time>2015-09-07T12:51:40Z</time>
      </trkpt>
      <trkpt lat="43.60735" lon="6.93914">
        <ele>79.06</ele>
        <time>2015-09-07T12:51:50Z</time>
      </trkpt>
      <trkpt lat="43.6072" lon="6.93899">
        <ele>81.97</ele>
        <time>2015-09-07T12:51:59Z</time>
      </trkpt>
      <trkpt lat="43.60702" lon="6.93889">
        <ele>79.8</ele>
        <time>2015-09-07T12:52:10Z</time>
      </trkpt>
      <trkpt lat="43.60685" lon="6.93877">
        <ele>83.01</ele>
        <time>2015-09-07T12:52:21Z</time>
      </trkpt>
      <trkpt lat="43.60672" lon="6.93858">
        <ele>84.82</ele>
        <time>2015-09-07T12:52:36Z</time>
      </trkpt>
      <trkpt lat="43.60654" lon="6.93858">
        <ele>85.43</ele>
        <time>2015-09-07T12:53:53Z</time>
      </trkpt>
      <trkpt lat="43.60635" lon="6.93859">
        <ele>86.67</ele>
        <time>2015-09-07T12:54:00Z</time>
      </trkpt>
      <trkpt lat="43.60616" lon="6.93853">
        <ele>87.65</ele>
        <time>2015-09-07T12:54:06Z</time>
      </trkpt>
      <trkpt lat="43.60599" lon="6.93842">
        <ele>88.98</ele>
        <time>2015-09-07T12:54:12Z</time>
      </trkpt>
      <trkpt lat="43.6058" lon="6.93844">
        <ele>92.67</ele>
        <time>2015-09-07T12:54:27Z</time>
      </trkpt>
      <trkpt lat="43.60563" lon="6.93832">
        <ele>90.81</ele>
        <time>2015-09-07T12:54:36Z</time>
      </trkpt>
      <trkpt lat="43.60562" lon="6.93805">
        <ele>94.97</ele>
        <time>2015-09-07T12:54:58Z</time>
      </trkpt>
      <trkpt lat="43.60562" lon="6.93779">
        <ele>102.35</ele>
        <time>2015-09-07T12:55:10Z</time>
      </trkpt>
      <trkpt lat="43.60565" lon="6.93754">
        <ele>102.83</ele>
        <time>2015-09-07T12:55:23Z</time>
      </trkpt>
      <trkpt lat="43.60546" lon="6.93749">
        <ele>104.17</ele>
        <time>2015-09-07T12:56:17Z</time>
      </trkpt>
      <trkpt lat="43.60528" lon="6.93745">
        <ele>107.17</ele>
        <time>2015-09-07T12:56:27Z</time>
      </trkpt>
      <trkpt lat="43.60508" lon="6.9374">
        <ele>108.55</ele>
        <time>2015-09-07T12:56:36Z</time>
      </trkpt>
      <trkpt lat="43.6049" lon="6.93737">
        <ele>107.93</ele>
        <time>2015-09-07T12:56:45Z</time>
      </trkpt>
      <trkpt lat="43.60479" lon="6.93716">
        <ele>106.43</ele>
        <time>2015-09-07T12:56:53Z</time>
      </trkpt>
      <trkpt lat="43.60464" lon="6.93701">
        <ele>105.15</ele>
        <time>2015-09-07T12:56:59Z</time>
      </trkpt>
      <trkpt lat="43.60449" lon="6.93688">
        <ele>104.08</ele>
        <time>2015-09-07T12:57:04Z</time>
      </trkpt>
      <trkpt lat="43.6043" lon="6.93676">
        <ele>103.21</ele>
        <time>2015-09-07T12:57:10Z</time>
      </trkpt>
      <trkpt lat="43.60411" lon="6.93675">
        <ele>103.25</ele>
        <time>2015-09-07T12:57:16Z</time>
      </trkpt>
      <trkpt lat="43.60395" lon="6.93688">
        <ele>103.18</ele>
        <time>2015-09-07T12:57:22Z</time>
      </trkpt>
      <trkpt lat="43.60381" lon="6.93708">
        <ele>102.46</ele>
        <time>2015-09-07T12:57:28Z</time>
      </trkpt>
      <trkpt lat="43.60369" lon="6.93727">
        <ele>99.31</ele>
        <time>2015-09-07T12:57:34Z</time>
      </trkpt>
      <trkpt lat="43.60359" lon="6.93749">
        <ele>98.76</ele>
        <time>2015-09-07T12:57:49Z</time>
      </trkpt>
      <trkpt lat="43.60347" lon="6.93768">
        <ele>102.07</ele>
        <time>2015-09-07T12:58:01Z</time>
      </trkpt>
      <trkpt lat="43.60332" lon="6.93784">
        <ele>103.56</ele>
        <time>2015-09-07T12:58:11Z</time>
      </trkpt>
      <trkpt lat="43.60318" lon="6.93802">
        <ele>110.56</ele>
        <time>2015-09-07T12:58:40Z</time>
      </trkpt>
      <trkpt lat="43.60305" lon="6.93819">
        <ele>109.93</ele>
        <time>2015-09-07T12:58:51Z</time>
      </trkpt>
      <trkpt lat="43.6029" lon="6.93803">
        <ele>113.13</ele>
        <time>2015-09-07T12:59:48Z</time>
      </trkpt>
      <trkpt lat="43.60282" lon="6.93781">
        <ele>109.62</ele>
        <time>2015-09-07T12:59:59Z</time>
      </trkpt>
      <trkpt lat="43.60274" lon="6.93755">
        <ele>108.7</ele>
        <time>2015-09-07T13:00:03Z</time>
      </trkpt>
      <trkpt lat="43.60267" lon="6.9373">
        <ele>109.15</ele>
        <time>2015-09-07T13:00:07Z</time>
      </trkpt>
      <trkpt lat="43.60256" lon="6.93708">
        <ele>109.99</ele>
        <time>2015-09-07T13:00:13Z</time>
      </trkpt>
      <trkpt lat="43.60247" lon="6.93686">
        <ele>110.17</ele>
        <time>2015-09-07T13:00:19Z</time>
      </trkpt>
      <trkpt lat="43.60244" lon="6.93657">
        <ele>109.54</ele>
        <time>2015-09-07T13:00:25Z</time>
      </trkpt>
      <trkpt lat="43.60242" lon="6.9363">
        <ele>109.88</ele>
        <time>2015-09-07T13:00:32Z</time>
      </trkpt>
      <trkpt lat="43.60247" lon="6.93658">
        <ele>109.6</ele>
        <time>2015-09-07T13:01:24Z</time>
      </trkpt>
      <trkpt lat="43.60249" lon="6.93684">
        <ele>109.19</ele>
        <time>2015-09-07T13:01:29Z</time>
      </trkpt>
      <trkpt lat="43.60256" lon="6.93709">
        <ele>110.05</ele>
        <time>2015-09-07T13:01:34Z</time>
      </trkpt>
      <trkpt lat="43.60261" lon="6.93738">
        <ele>111.11</ele>
        <time>2015-09-07T13:01:38Z</time>
      </trkpt>
      <trkpt lat="43.60262" lon="6.93763">
        <ele>111.23</ele>
        <time>2015-09-07T13:01:42Z</time>
      </trkpt>
      <trkpt lat="43.60268" lon="6.93788">
        <ele>111.77</ele>
        <time>2015-09-07T13:01:48Z</time>
      </trkpt>
      <trkpt lat="43.60271" lon="6.93815">
        <ele>112.69</ele>
        <time>2015-09-07T13:02:06Z</time>
      </trkpt>
      <trkpt lat="43.60285" lon="6.93835">
        <ele>114.28</ele>
        <time>2015-09-07T13:02:18Z</time>
      </trkpt>
      <trkpt lat="43.60287" lon="6.93861">
        <ele>114.65</ele>
        <time>2015-09-07T13:02:28Z</time>
      </trkpt>
      <trkpt lat="43.60278" lon="6.93885">
        <ele>116.11</ele>
        <time>2015-09-07T13:02:36Z</time>
      </trkpt>
      <trkpt lat="43.60271" lon="6.93908">
        <ele>115.19</ele>
        <time>2015-09-07T13:02:43Z</time>
      </trkpt>
      <trkpt lat="43.60264" lon="6.93932">
        <ele>113.55</ele>
        <time>2015-09-07T13:02:50Z</time>
      </trkpt>
      <trkpt lat="43.60253" lon="6.93956">
        <ele>113.44</ele>
        <time>2015-09-07T13:02:58Z</time>
      </trkpt>
      <trkpt lat="43.60242" lon="6.93978">
        <ele>114.93</ele>
        <time>2015-09-07T13:03:06Z</time>
      </trkpt>
      <trkpt lat="43.60234" lon="6.94003">
        <ele>116.05</ele>
        <time>2015-09-07T13:03:13Z</time>
      </trkpt>
      <trkpt lat="43.60216" lon="6.94014">
        <ele>114.99</ele>
        <time>2015-09-07T13:03:21Z</time>
      </trkpt>
      <trkpt lat="43.60197" lon="6.94017">
        <ele>115.61</ele>
        <time>2015-09-07T13:03:27Z</time>
      </trkpt>
      <trkpt lat="43.60178" lon="6.94018">
        <ele>114.7</ele>
        <time>2015-09-07T13:03:31Z</time>
      </trkpt>
      <trkpt lat="43.60158" lon="6.9401">
        <ele>115.16</ele>
        <time>2015-09-07T13:03:36Z</time>
      </trkpt>
      <trkpt lat="43.60139" lon="6.94011">
        <ele>115.46</ele>
        <time>2015-09-07T13:03:48Z</time>
      </trkpt>
      <trkpt lat="43.60141" lon="6.94036">
        <ele>116.03</ele>
        <time>2015-09-07T13:04:11Z</time>
      </trkpt>
      <trkpt lat="43.60139" lon="6.94062">
        <ele>123.38</ele>
        <time>2015-09-07T13:04:45Z</time>
      </trkpt>
      <trkpt lat="43.6015" lon="6.94083">
        <ele>120.23</ele>
        <time>2015-09-07T13:04:58Z</time>
      </trkpt>
      <trkpt lat="43.60133" lon="6.94077">
        <ele>125.9</ele>
        <time>2015-09-07T13:05:15Z</time>
      </trkpt>
      <trkpt lat="43.60123" lon="6.94098">
        <ele>133.01</ele>
        <time>2015-09-07T13:05:32Z</time>
      </trkpt>
      <trkpt lat="43.60103" lon="6.94097">
        <ele>142.31</ele>
        <time>2015-09-07T13:06:02Z</time>
      </trkpt>
      <trkpt lat="43.60086" lon="6.94109">
        <ele>138.13</ele>
        <time>2015-09-07T13:06:17Z</time>
      </trkpt>
      <trkpt lat="43.60073" lon="6.94127">
        <ele>147.62</ele>
        <time>2015-09-07T13:06:28Z</time>
      </trkpt>
      <trkpt lat="43.6006" lon="6.94146">
        <ele>147.27</ele>
        <time>2015-09-07T13:06:38Z</time>
      </trkpt>
      <trkpt lat="43.60047" lon="6.94166">
        <ele>149.21</ele>
        <time>2015-09-07T13:06:47Z</time>
      </trkpt>
      <trkpt lat="43.60034" lon="6.94186">
        <ele>151.39</ele>
        <time>2015-09-07T13:06:56Z</time>
      </trkpt>
      <trkpt lat="43.60023" lon="6.94209">
        <ele>145.96</ele>
        <time>2015-09-07T13:07:04Z</time>
      </trkpt>
      <trkpt lat="43.60015" lon="6.94235">
        <ele>146.36</ele>
        <time>2015-09-07T13:07:10Z</time>
      </trkpt>
      <trkpt lat="43.60006" lon="6.94259">
        <ele>143.78</ele>
        <time>2015-09-07T13:07:15Z</time>
      </trkpt>
      <trkpt lat="43.60004" lon="6.94284">
        <ele>142.71</ele>
        <time>2015-09-07T13:07:32Z</time>
      </trkpt>
      <trkpt lat="43.60015" lon="6.94307">
        <ele>146.91</ele>
        <time>2015-09-07T13:07:44Z</time>
      </trkpt>
      <trkpt lat="43.60029" lon="6.94325">
        <ele>140.65</ele>
        <time>2015-09-07T13:07:55Z</time>
      </trkpt>
      <trkpt lat="43.60038" lon="6.94347">
        <ele>145.41</ele>
        <time>2015-09-07T13:08:05Z</time>
      </trkpt>
      <trkpt lat="43.60047" lon="6.94371">
        <ele>146.8</ele>
        <time>2015-09-07T13:10:55Z</time>
      </trkpt>
      <trkpt lat="43.60042" lon="6.94395">
        <ele>145.3</ele>
        <time>2015-09-07T13:11:04Z</time>
      </trkpt>
      <trkpt lat="43.60023" lon="6.94404">
        <ele>145.09</ele>
        <time>2015-09-07T13:11:09Z</time>
      </trkpt>
      <trkpt lat="43.60002" lon="6.94409">
        <ele>146.63</ele>
        <time>2015-09-07T13:11:15Z</time>
      </trkpt>
      <trkpt lat="43.59982" lon="6.94411">
        <ele>147.53</ele>
        <time>2015-09-07T13:11:20Z</time>
      </trkpt>
      <trkpt lat="43.59961" lon="6.94411">
        <ele>145.72</ele>
        <time>2015-09-07T13:11:25Z</time>
      </trkpt>
      <trkpt lat="43.59941" lon="6.94422">
        <ele>146.18</ele>
        <time>2015-09-07T13:11:31Z</time>
      </trkpt>
      <trkpt lat="43.59933" lon="6.94444">
        <ele>142.68</ele>
        <time>2015-09-07T13:12:33Z</time>
      </trkpt>
      <trkpt lat="43.59915" lon="6.94451">
        <ele>141.83</ele>
        <time>2015-09-07T13:12:41Z</time>
      </trkpt>
      <trkpt lat="43.59897" lon="6.9444">
        <ele>143.44</ele>
        <time>2015-09-07T13:12:51Z</time>
      </trkpt>
      <trkpt lat="43.59879" lon="6.94443">
        <ele>145.22</ele>
        <time>2015-09-07T13:12:56Z</time>
      </trkpt>
      <trkpt lat="43.5986" lon="6.94449">
        <ele>144.21</ele>
        <time>2015-09-07T13:13:01Z</time>
      </trkpt>
      <trkpt lat="43.59842" lon="6.94447">
        <ele>146.18</ele>
        <time>2015-09-07T13:13:06Z</time>
      </trkpt>
      <trkpt lat="43.59823" lon="6.94456">
        <ele>145.22</ele>
        <time>2015-09-07T13:13:12Z</time>
      </trkpt>
      <trkpt lat="43.59809" lon="6.94476">
        <ele>147.8</ele>
        <time>2015-09-07T13:13:37Z</time>
      </trkpt>
      <trkpt lat="43.59793" lon="6.9449">
        <ele>145.38</ele>
        <time>2015-09-07T13:13:55Z</time>
      </trkpt>
      <trkpt lat="43.59781" lon="6.9451">
        <ele>146.65</ele>
        <time>2015-09-07T13:14:04Z</time>
      </trkpt>
      <trkpt lat="43.59771" lon="6.94531">
        <ele>145.39</ele>
        <time>2015-09-07T13:14:13Z</time>
      </trkpt>
      <trkpt lat="43.59755" lon="6.94545">
        <ele>143</ele>
        <time>2015-09-07T13:14:21Z</time>
      </trkpt>
      <trkpt lat="43.59737" lon="6.94547">
        <ele>139.41</ele>
        <time>2015-09-07T13:14:30Z</time>
      </trkpt>
      <trkpt lat="43.59747" lon="6.94569">
        <ele>139.07</ele>
        <time>2015-09-07T13:14:42Z</time>
      </trkpt>
      <trkpt lat="43.59763" lon="6.94586">
        <ele>136.81</ele>
        <time>2015-09-07T13:14:51Z</time>
      </trkpt>
      <trkpt lat="43.59781" lon="6.94602">
        <ele>133.12</ele>
        <time>2015-09-07T13:14:58Z</time>
      </trkpt>
      <trkpt lat="43.59794" lon="6.94621">
        <ele>134.39</ele>
        <time>2015-09-07T13:15:04Z</time>
      </trkpt>
      <trkpt lat="43.59811" lon="6.94633">
        <ele>133.98</ele>
        <time>2015-09-07T13:15:21Z</time>
      </trkpt>
      <trkpt lat="43.5983" lon="6.94647">
        <ele>135.41</ele>
        <time>2015-09-07T13:15:31Z</time>
      </trkpt>
      <trkpt lat="43.59847" lon="6.94662">
        <ele>136.16</ele>
        <time>2015-09-07T13:15:37Z</time>
      </trkpt>
      <trkpt lat="43.59862" lon="6.94678">
        <ele>133.47</ele>
        <time>2015-09-07T13:15:44Z</time>
      </trkpt>
      <trkpt lat="43.59881" lon="6.94689">
        <ele>131.42</ele>
        <time>2015-09-07T13:15:51Z</time>
      </trkpt>
      <trkpt lat="43.59901" lon="6.94703">
        <ele>130.32</ele>
        <time>2015-09-07T13:15:55Z</time>
      </trkpt>
      <trkpt lat="43.59918" lon="6.94718">
        <ele>132.31</ele>
        <time>2015-09-07T13:16:00Z</time>
      </trkpt>
      <trkpt lat="43.59936" lon="6.94737">
        <ele>133.96</ele>
        <time>2015-09-07T13:16:05Z</time>
      </trkpt>
      <trkpt lat="43.59951" lon="6.94749">
        <ele>135.51</ele>
        <time>2015-09-07T13:16:10Z</time>
      </trkpt>
      <trkpt lat="43.59967" lon="6.94764">
        <ele>134.41</ele>
        <time>2015-09-07T13:16:15Z</time>
      </trkpt>
      <trkpt lat="43.59983" lon="6.94778">
        <ele>133.41</ele>
        <time>2015-09-07T13:16:21Z</time>
      </trkpt>
      <trkpt lat="43.59998" lon="6.94797">
        <ele>133.58</ele>
        <time>2015-09-07T13:16:29Z</time>
      </trkpt>
      <trkpt lat="43.60006" lon="6.94823">
        <ele>133.75</ele>
        <time>2015-09-07T13:16:34Z</time>
      </trkpt>
      <trkpt lat="43.60019" lon="6.94846">
        <ele>133.18</ele>
        <time>2015-09-07T13:16:40Z</time>
      </trkpt>
      <trkpt lat="43.60031" lon="6.94821">
        <ele>131.65</ele>
        <time>2015-09-07T13:17:17Z</time>
      </trkpt>
      <trkpt lat="43.60048" lon="6.94799">
        <ele>130.27</ele>
        <time>2015-09-07T13:17:21Z</time>
      </trkpt>
      <trkpt lat="43.60065" lon="6.94784">
        <ele>127.94</ele>
        <time>2015-09-07T13:17:24Z</time>
      </trkpt>
      <trkpt lat="43.60082" lon="6.94768">
        <ele>125.9</ele>
        <time>2015-09-07T13:17:27Z</time>
      </trkpt>
      <trkpt lat="43.60095" lon="6.9475">
        <ele>124.39</ele>
        <time>2015-09-07T13:17:30Z</time>
      </trkpt>
      <trkpt lat="43.60111" lon="6.94728">
        <ele>125.96</ele>
        <time>2015-09-07T13:17:35Z</time>
      </trkpt>
      <trkpt lat="43.60132" lon="6.94712">
        <ele>124.48</ele>
        <time>2015-09-07T13:17:39Z</time>
      </trkpt>
      <trkpt lat="43.60151" lon="6.94693">
        <ele>123.71</ele>
        <time>2015-09-07T13:17:42Z</time>
      </trkpt>
      <trkpt lat="43.60173" lon="6.94676">
        <ele>121.87</ele>
        <time>2015-09-07T13:17:45Z</time>
      </trkpt>
      <trkpt lat="43.60192" lon="6.94668">
        <ele>119.01</ele>
        <time>2015-09-07T13:17:48Z</time>
      </trkpt>
      <trkpt lat="43.60216" lon="6.94665">
        <ele>117.85</ele>
        <time>2015-09-07T13:17:52Z</time>
      </trkpt>
      <trkpt lat="43.60229" lon="6.94685">
        <ele>116.98</ele>
        <time>2015-09-07T13:17:57Z</time>
      </trkpt>
      <trkpt lat="43.60248" lon="6.94691">
        <ele>116.29</ele>
        <time>2015-09-07T13:18:01Z</time>
      </trkpt>
      <trkpt lat="43.60267" lon="6.94701">
        <ele>115.43</ele>
        <time>2015-09-07T13:18:05Z</time>
      </trkpt>
      <trkpt lat="43.60288" lon="6.94708">
        <ele>115.69</ele>
        <time>2015-09-07T13:18:09Z</time>
      </trkpt>
      <trkpt lat="43.60305" lon="6.94721">
        <ele>118.46</ele>
        <time>2015-09-07T13:18:13Z</time>
      </trkpt>
      <trkpt lat="43.60325" lon="6.9473">
        <ele>117.32</ele>
        <time>2015-09-07T13:18:17Z</time>
      </trkpt>
      <trkpt lat="43.60345" lon="6.94727">
        <ele>115.56</ele>
        <time>2015-09-07T13:18:21Z</time>
      </trkpt>
      <trkpt lat="43.60364" lon="6.94719">
        <ele>114.32</ele>
        <time>2015-09-07T13:18:25Z</time>
      </trkpt>
      <trkpt lat="43.60385" lon="6.94714">
        <ele>113.69</ele>
        <time>2015-09-07T13:18:29Z</time>
      </trkpt>
      <trkpt lat="43.60405" lon="6.94714">
        <ele>113.61</ele>
        <time>2015-09-07T13:18:32Z</time>
      </trkpt>
      <trkpt lat="43.60422" lon="6.94694">
        <ele>114.89</ele>
        <time>2015-09-07T13:18:36Z</time>
      </trkpt>
      <trkpt lat="43.60419" lon="6.94668">
        <ele>116.97</ele>
        <time>2015-09-07T13:18:40Z</time>
      </trkpt>
      <trkpt lat="43.60431" lon="6.94647">
        <ele>114.28</ele>
        <time>2015-09-07T13:18:46Z</time>
      </trkpt>
      <trkpt lat="43.60449" lon="6.94639">
        <ele>114.83</ele>
        <time>2015-09-07T13:18:53Z</time>
      </trkpt>
      <trkpt lat="43.60464" lon="6.94622">
        <ele>117.63</ele>
        <time>2015-09-07T13:19:00Z</time>
      </trkpt>
      <trkpt lat="43.60481" lon="6.94608">
        <ele>115.28</ele>
        <time>2015-09-07T13:19:06Z</time>
      </trkpt>
      <trkpt lat="43.60498" lon="6.94593">
        <ele>116.49</ele>
        <time>2015-09-07T13:19:10Z</time>
      </trkpt>
      <trkpt lat="43.60515" lon="6.9458">
        <ele>116.2</ele>
        <time>2015-09-07T13:19:14Z</time>
      </trkpt>
      <trkpt lat="43.6053" lon="6.94561">
        <ele>115.8</ele>
        <time>2015-09-07T13:19:18Z</time>
      </trkpt>
      <trkpt lat="43.60546" lon="6.94548">
        <ele>114.03</ele>
        <time>2015-09-07T13:19:22Z</time>
      </trkpt>
      <trkpt lat="43.60563" lon="6.94537">
        <ele>108.48</ele>
        <time>2015-09-07T13:19:26Z</time>
      </trkpt>
      <trkpt lat="43.60582" lon="6.94552">
        <ele>109.75</ele>
        <time>2015-09-07T13:19:31Z</time>
      </trkpt>
      <trkpt lat="43.60589" lon="6.94578">
        <ele>109.65</ele>
        <time>2015-09-07T13:19:35Z</time>
      </trkpt>
      <trkpt lat="43.60594" lon="6.94606">
        <ele>107.96</ele>
        <time>2015-09-07T13:19:39Z</time>
      </trkpt>
      <trkpt lat="43.60596" lon="6.94632">
        <ele>110.29</ele>
        <time>2015-09-07T13:19:43Z</time>
      </trkpt>
      <trkpt lat="43.60599" lon="6.9466">
        <ele>111.31</ele>
        <time>2015-09-07T13:19:47Z</time>
      </trkpt>
      <trkpt lat="43.60616" lon="6.94672">
        <ele>113.26</ele>
        <time>2015-09-07T13:19:56Z</time>
      </trkpt>
      <trkpt lat="43.6063" lon="6.94653">
        <ele>116.94</ele>
        <time>2015-09-07T13:20:04Z</time>
      </trkpt>
      <trkpt lat="43.60647" lon="6.94638">
        <ele>116.19</ele>
        <time>2015-09-07T13:20:12Z</time>
      </trkpt>
      <trkpt lat="43.60661" lon="6.94619">
        <ele>117.58</ele>
        <time>2015-09-07T13:20:21Z</time>
      </trkpt>
      <trkpt lat="43.60676" lon="6.94602">
        <ele>119.86</ele>
        <time>2015-09-07T13:20:30Z</time>
      </trkpt>
      <trkpt lat="43.60693" lon="6.9459">
        <ele>121.33</ele>
        <time>2015-09-07T13:20:38Z</time>
      </trkpt>
      <trkpt lat="43.6071" lon="6.94601">
        <ele>121.77</ele>
        <time>2015-09-07T13:20:46Z</time>
      </trkpt>
      <trkpt lat="43.60716" lon="6.94625">
        <ele>122.36</ele>
        <time>2015-09-07T13:20:57Z</time>
      </trkpt>
      <trkpt lat="43.60716" lon="6.94651">
        <ele>125.27</ele>
        <time>2015-09-07T13:22:32Z</time>
      </trkpt>
      <trkpt lat="43.60719" lon="6.94677">
        <ele>125.73</ele>
        <time>2015-09-07T13:22:44Z</time>
      </trkpt>
      <trkpt lat="43.60724" lon="6.94702">
        <ele>128.14</ele>
        <time>2015-09-07T13:22:54Z</time>
      </trkpt>
      <trkpt lat="43.60729" lon="6.94726">
        <ele>126.72</ele>
        <time>2015-09-07T13:23:02Z</time>
      </trkpt>
      <trkpt lat="43.60732" lon="6.94751">
        <ele>127.56</ele>
        <time>2015-09-07T13:23:11Z</time>
      </trkpt>
      <trkpt lat="43.60736" lon="6.94775">
        <ele>125.49</ele>
        <time>2015-09-07T13:23:22Z</time>
      </trkpt>
      <trkpt lat="43.60742" lon="6.94801">
        <ele>128.26</ele>
        <time>2015-09-07T13:23:32Z</time>
      </trkpt>
      <trkpt lat="43.60758" lon="6.94813">
        <ele>138.39</ele>
        <time>2015-09-07T13:23:43Z</time>
      </trkpt>
      <trkpt lat="43.60777" lon="6.94808">
        <ele>141.25</ele>
        <time>2015-09-07T13:23:56Z</time>
      </trkpt>
      <trkpt lat="43.60797" lon="6.94809">
        <ele>140.38</ele>
        <time>2015-09-07T13:24:10Z</time>
      </trkpt>
      <trkpt lat="43.60815" lon="6.94819">
        <ele>142.03</ele>
        <time>2015-09-07T13:24:22Z</time>
      </trkpt>
      <trkpt lat="43.60813" lon="6.94845">
        <ele>143.98</ele>
        <time>2015-09-07T13:25:50Z</time>
      </trkpt>
      <trkpt lat="43.60819" lon="6.94869">
        <ele>150.51</ele>
        <time>2015-09-07T13:26:00Z</time>
      </trkpt>
      <trkpt lat="43.60817" lon="6.94895">
        <ele>150.71</ele>
        <time>2015-09-07T13:26:09Z</time>
      </trkpt>
      <trkpt lat="43.60816" lon="6.9492">
        <ele>152.09</ele>
        <time>2015-09-07T13:26:22Z</time>
      </trkpt>
      <trkpt lat="43.60818" lon="6.94946">
        <ele>157.39</ele>
        <time>2015-09-07T13:26:33Z</time>
      </trkpt>
      <trkpt lat="43.6082" lon="6.94972">
        <ele>161.09</ele>
        <time>2015-09-07T13:26:45Z</time>
      </trkpt>
      <trkpt lat="43.60819" lon="6.94998">
        <ele>162.31</ele>
        <time>2015-09-07T13:26:57Z</time>
      </trkpt>
      <trkpt lat="43.60818" lon="6.95025">
        <ele>163.67</ele>
        <time>2015-09-07T13:27:07Z</time>
      </trkpt>
      <trkpt lat="43.60815" lon="6.95053">
        <ele>164.42</ele>
        <time>2015-09-07T13:27:15Z</time>
      </trkpt>
      <trkpt lat="43.60809" lon="6.95077">
        <ele>161.78</ele>
        <time>2015-09-07T13:27:20Z</time>
      </trkpt>
      <trkpt lat="43.60818" lon="6.951">
        <ele>161.25</ele>
        <time>2015-09-07T13:27:27Z</time>
      </trkpt>
      <trkpt lat="43.60838" lon="6.95104">
        <ele>160.68</ele>
        <time>2015-09-07T13:27:31Z</time>
      </trkpt>
      <trkpt lat="43.6086" lon="6.95115">
        <ele>158.4</ele>
        <time>2015-09-07T13:27:35Z</time>
      </trkpt>
      <trkpt lat="43.60881" lon="6.95122">
        <ele>157.45</ele>
        <time>2015-09-07T13:27:38Z</time>
      </trkpt>
      <trkpt lat="43.60899" lon="6.95128">
        <ele>156.46</ele>
        <time>2015-09-07T13:27:41Z</time>
      </trkpt>
      <trkpt lat="43.60917" lon="6.95136">
        <ele>157.15</ele>
        <time>2015-09-07T13:27:46Z</time>
      </trkpt>
      <trkpt lat="43.60938" lon="6.95143">
        <ele>157.61</ele>
        <time>2015-09-07T13:27:51Z</time>
      </trkpt>
      <trkpt lat="43.60959" lon="6.95152">
        <ele>157.88</ele>
        <time>2015-09-07T13:27:56Z</time>
      </trkpt>
      <trkpt lat="43.60979" lon="6.95161">
        <ele>158.64</ele>
        <time>2015-09-07T13:28:01Z</time>
      </trkpt>
      <trkpt lat="43.60997" lon="6.95176">
        <ele>160.53</ele>
        <time>2015-09-07T13:28:06Z</time>
      </trkpt>
      <trkpt lat="43.61011" lon="6.95192">
        <ele>161.45</ele>
        <time>2015-09-07T13:28:10Z</time>
      </trkpt>
      <trkpt lat="43.61028" lon="6.95211">
        <ele>166.15</ele>
        <time>2015-09-07T13:28:15Z</time>
      </trkpt>
      <trkpt lat="43.61048" lon="6.95214">
        <ele>166.39</ele>
        <time>2015-09-07T13:28:20Z</time>
      </trkpt>
      <trkpt lat="43.61069" lon="6.95209">
        <ele>165.31</ele>
        <time>2015-09-07T13:28:25Z</time>
      </trkpt>
      <trkpt lat="43.61082" lon="6.95185">
        <ele>163.86</ele>
        <time>2015-09-07T13:28:33Z</time>
      </trkpt>
      <trkpt lat="43.61089" lon="6.95161">
        <ele>161.51</ele>
        <time>2015-09-07T13:28:36Z</time>
      </trkpt>
      <trkpt lat="43.61097" lon="6.95132">
        <ele>158.22</ele>
        <time>2015-09-07T13:28:39Z</time>
      </trkpt>
      <trkpt lat="43.61107" lon="6.95099">
        <ele>156.56</ele>
        <time>2015-09-07T13:28:42Z</time>
      </trkpt>
      <trkpt lat="43.61124" lon="6.95074">
        <ele>155.72</ele>
        <time>2015-09-07T13:28:45Z</time>
      </trkpt>
      <trkpt lat="43.61134" lon="6.95051">
        <ele>154.49</ele>
        <time>2015-09-07T13:28:48Z</time>
      </trkpt>
      <trkpt lat="43.6113" lon="6.95023">
        <ele>152.01</ele>
        <time>2015-09-07T13:28:52Z</time>
      </trkpt>
      <trkpt lat="43.61131" lon="6.94996">
        <ele>149.45</ele>
        <time>2015-09-07T13:28:58Z</time>
      </trkpt>
      <trkpt lat="43.61148" lon="6.95007">
        <ele>154.14</ele>
        <time>2015-09-07T13:29:41Z</time>
      </trkpt>
      <trkpt lat="43.61166" lon="6.95011">
        <ele>155.02</ele>
        <time>2015-09-07T13:29:52Z</time>
      </trkpt>
      <trkpt lat="43.61185" lon="6.95011">
        <ele>154.74</ele>
        <time>2015-09-07T13:30:25Z</time>
      </trkpt>
      <trkpt lat="43.61192" lon="6.94989">
        <ele>151.89</ele>
        <time>2015-09-07T13:30:42Z</time>
      </trkpt>
      <trkpt lat="43.6119" lon="6.94964">
        <ele>152.94</ele>
        <time>2015-09-07T13:30:48Z</time>
      </trkpt>
      <trkpt lat="43.61195" lon="6.94937">
        <ele>153.17</ele>
        <time>2015-09-07T13:30:54Z</time>
      </trkpt>
      <trkpt lat="43.61201" lon="6.9491">
        <ele>150</ele>
        <time>2015-09-07T13:31:03Z</time>
      </trkpt>
      <trkpt lat="43.61205" lon="6.94885">
        <ele>144.78</ele>
        <time>2015-09-07T13:31:19Z</time>
      </trkpt>
      <trkpt lat="43.6121" lon="6.9486">
        <ele>139.91</ele>
        <time>2015-09-07T13:31:31Z</time>
      </trkpt>
      <trkpt lat="43.61212" lon="6.94834">
        <ele>132.4</ele>
        <time>2015-09-07T13:31:46Z</time>
      </trkpt>
      <trkpt lat="43.61213" lon="6.94809">
        <ele>128.91</ele>
        <time>2015-09-07T13:31:57Z</time>
      </trkpt>
      <trkpt lat="43.6122" lon="6.94785">
        <ele>121.27</ele>
        <time>2015-09-07T13:32:19Z</time>
      </trkpt>
      <trkpt lat="43.61217" lon="6.94758">
        <ele>112.61</ele>
        <time>2015-09-07T13:32:41Z</time>
      </trkpt>
      <trkpt lat="43.61233" lon="6.94742">
        <ele>105.69</ele>
        <time>2015-09-07T13:32:50Z</time>
      </trkpt>
      <trkpt lat="43.61252" lon="6.94733">
        <ele>106.17</ele>
        <time>2015-09-07T13:32:57Z</time>
      </trkpt>
      <trkpt lat="43.61256" lon="6.94708">
        <ele>95.74</ele>
        <time>2015-09-07T13:33:44Z</time>
      </trkpt>
      <trkpt lat="43.61244" lon="6.94688">
        <ele>91.46</ele>
        <time>2015-09-07T13:33:59Z</time>
      </trkpt>
      <trkpt lat="43.6124" lon="6.94663">
        <ele>88.57</ele>
        <time>2015-09-07T13:34:33Z</time>
      </trkpt>
      <trkpt lat="43.61225" lon="6.94647">
        <ele>86.69</ele>
        <time>2015-09-07T13:34:40Z</time>
      </trkpt>
      <trkpt lat="43.61206" lon="6.94639">
        <ele>86.69</ele>
        <time>2015-09-07T13:34:45Z</time>
      </trkpt>
      <trkpt lat="43.61192" lon="6.94623">
        <ele>76.92</ele>
        <time>2015-09-07T13:34:54Z</time>
      </trkpt>
      <trkpt lat="43.61188" lon="6.94598">
        <ele>74.26</ele>
        <time>2015-09-07T13:36:37Z</time>
      </trkpt>
      <trkpt lat="43.612" lon="6.94579">
        <ele>70.18</ele>
        <time>2015-09-07T13:36:49Z</time>
      </trkpt>
      <trkpt lat="43.61209" lon="6.94557">
        <ele>71.55</ele>
        <time>2015-09-07T13:36:59Z</time>
      </trkpt>
      <trkpt lat="43.61222" lon="6.94538">
        <ele>76.63</ele>
        <time>2015-09-07T13:41:40Z</time>
      </trkpt>
      <trkpt lat="43.61239" lon="6.94528">
        <ele>74.72</ele>
        <time>2015-09-07T13:41:49Z</time>
      </trkpt>
      <trkpt lat="43.61259" lon="6.94534">
        <ele>75.57</ele>
        <time>2015-09-07T13:41:57Z</time>
      </trkpt>
      <trkpt lat="43.61275" lon="6.94546">
        <ele>69.65</ele>
        <time>2015-09-07T13:42:03Z</time>
      </trkpt>
      <trkpt lat="43.61294" lon="6.94546">
        <ele>69.63</ele>
        <time>2015-09-07T13:42:14Z</time>
      </trkpt>
      <trkpt lat="43.6131" lon="6.94529">
        <ele>67.3</ele>
        <time>2015-09-07T13:42:24Z</time>
      </trkpt>
      <trkpt lat="43.61331" lon="6.9453">
        <ele>65.18</ele>
        <time>2015-09-07T13:42:29Z</time>
      </trkpt>
      <trkpt lat="43.61351" lon="6.94534">
        <ele>67.33</ele>
        <time>2015-09-07T13:42:34Z</time>
      </trkpt>
      <trkpt lat="43.6137" lon="6.9454">
        <ele>73.18</ele>
        <time>2015-09-07T13:42:39Z</time>
      </trkpt>
      <trkpt lat="43.61389" lon="6.9455">
        <ele>70.99</ele>
        <time>2015-09-07T13:42:44Z</time>
      </trkpt>
      <trkpt lat="43.61406" lon="6.94564">
        <ele>71.95</ele>
        <time>2015-09-07T13:42:49Z</time>
      </trkpt>
      <trkpt lat="43.61426" lon="6.94566">
        <ele>71.02</ele>
        <time>2015-09-07T13:42:55Z</time>
      </trkpt>
      <trkpt lat="43.61443" lon="6.94554">
        <ele>69.19</ele>
        <time>2015-09-07T13:43:03Z</time>
      </trkpt>
      <trkpt lat="43.6146" lon="6.94541">
        <ele>70.24</ele>
        <time>2015-09-07T13:43:07Z</time>
      </trkpt>
      <trkpt lat="43.61474" lon="6.94524">
        <ele>69.49</ele>
        <time>2015-09-07T13:43:11Z</time>
      </trkpt>
      <trkpt lat="43.61492" lon="6.94515">
        <ele>66.63</ele>
        <time>2015-09-07T13:43:15Z</time>
      </trkpt>
      <trkpt lat="43.61514" lon="6.94515">
        <ele>64.5</ele>
        <time>2015-09-07T13:43:20Z</time>
      </trkpt>
      <trkpt lat="43.61535" lon="6.94517">
        <ele>65.78</ele>
        <time>2015-09-07T13:43:25Z</time>
      </trkpt>
      <trkpt lat="43.61553" lon="6.94519">
        <ele>66.59</ele>
        <time>2015-09-07T13:43:29Z</time>
      </trkpt>
      <trkpt lat="43.61572" lon="6.94535">
        <ele>66.88</ele>
        <time>2015-09-07T13:43:34Z</time>
      </trkpt>
      <trkpt lat="43.61589" lon="6.94543">
        <ele>67.57</ele>
        <time>2015-09-07T13:43:39Z</time>
      </trkpt>
      <trkpt lat="43.61607" lon="6.94551">
        <ele>69.81</ele>
        <time>2015-09-07T13:43:44Z</time>
      </trkpt>
      <trkpt lat="43.61625" lon="6.94551">
        <ele>72.14</ele>
        <time>2015-09-07T13:43:54Z</time>
      </trkpt>
      <trkpt lat="43.61645" lon="6.94548">
        <ele>70</ele>
        <time>2015-09-07T13:44:05Z</time>
      </trkpt>
      <trkpt lat="43.61662" lon="6.94542">
        <ele>72.08</ele>
        <time>2015-09-07T13:44:17Z</time>
      </trkpt>
      <trkpt lat="43.61667" lon="6.94517">
        <ele>73.18</ele>
        <time>2015-09-07T13:44:36Z</time>
      </trkpt>
      <trkpt lat="43.61679" lon="6.94538">
        <ele>77.19</ele>
        <time>2015-09-07T13:45:05Z</time>
      </trkpt>
      <trkpt lat="43.61678" lon="6.94567">
        <ele>77.68</ele>
        <time>2015-09-07T13:45:11Z</time>
      </trkpt>
      <trkpt lat="43.61679" lon="6.94596">
        <ele>77.53</ele>
        <time>2015-09-07T13:45:17Z</time>
      </trkpt>
      <trkpt lat="43.61682" lon="6.94624">
        <ele>77.29</ele>
        <time>2015-09-07T13:45:23Z</time>
      </trkpt>
      <trkpt lat="43.61685" lon="6.94649">
        <ele>76.21</ele>
        <time>2015-09-07T13:45:29Z</time>
      </trkpt>
      <trkpt lat="43.6169" lon="6.94673">
        <ele>79.76</ele>
        <time>2015-09-07T13:45:36Z</time>
      </trkpt>
      <trkpt lat="43.61695" lon="6.94697">
        <ele>82.14</ele>
        <time>2015-09-07T13:45:47Z</time>
      </trkpt>
      <trkpt lat="43.61699" lon="6.94721">
        <ele>87.53</ele>
        <time>2015-09-07T13:46:01Z</time>
      </trkpt>
      <trkpt lat="43.61704" lon="6.94745">
        <ele>88.85</ele>
        <time>2015-09-07T13:46:14Z</time>
      </trkpt>
      <trkpt lat="43.6171" lon="6.9477">
        <ele>92.61</ele>
        <time>2015-09-07T13:46:26Z</time>
      </trkpt>
      <trkpt lat="43.61716" lon="6.94794">
        <ele>93.18</ele>
        <time>2015-09-07T13:46:37Z</time>
      </trkpt>
      <trkpt lat="43.6172" lon="6.94821">
        <ele>93.4</ele>
        <time>2015-09-07T13:46:46Z</time>
      </trkpt>
      <trkpt lat="43.61726" lon="6.94846">
        <ele>94.42</ele>
        <time>2015-09-07T13:46:54Z</time>
      </trkpt>
      <trkpt lat="43.61737" lon="6.94869">
        <ele>93.92</ele>
        <time>2015-09-07T13:47:02Z</time>
      </trkpt>
      <trkpt lat="43.61748" lon="6.94893">
        <ele>93.64</ele>
        <time>2015-09-07T13:47:09Z</time>
      </trkpt>
      <trkpt lat="43.61763" lon="6.94913">
        <ele>89.92</ele>
        <time>2015-09-07T13:47:15Z</time>
      </trkpt>
      <trkpt lat="43.61752" lon="6.94892">
        <ele>86.42</ele>
        <time>2015-09-07T13:48:59Z</time>
      </trkpt>
      <trkpt lat="43.6174" lon="6.94872">
        <ele>84.3</ele>
        <time>2015-09-07T13:49:07Z</time>
      </trkpt>
      <trkpt lat="43.61727" lon="6.94853">
        <ele>84.29</ele>
        <time>2015-09-07T13:49:15Z</time>
      </trkpt>
      <trkpt lat="43.61741" lon="6.94836">
        <ele>85.87</ele>
        <time>2015-09-07T13:49:26Z</time>
      </trkpt>
      <trkpt lat="43.61755" lon="6.94821">
        <ele>89.19</ele>
        <time>2015-09-07T13:49:40Z</time>
      </trkpt>
      <trkpt lat="43.6176" lon="6.94796">
        <ele>92.07</ele>
        <time>2015-09-07T13:49:52Z</time>
      </trkpt>
      <trkpt lat="43.61761" lon="6.9477">
        <ele>94.13</ele>
        <time>2015-09-07T13:50:05Z</time>
      </trkpt>
      <trkpt lat="43.61763" lon="6.94745">
        <ele>98.53</ele>
        <time>2015-09-07T13:50:18Z</time>
      </trkpt>
      <trkpt lat="43.61779" lon="6.94732">
        <ele>101.07</ele>
        <time>2015-09-07T13:50:33Z</time>
      </trkpt>
      <trkpt lat="43.61793" lon="6.94714">
        <ele>107.34</ele>
        <time>2015-09-07T13:50:49Z</time>
      </trkpt>
      <trkpt lat="43.61805" lon="6.94695">
        <ele>110.96</ele>
        <time>2015-09-07T13:51:20Z</time>
      </trkpt>
      <trkpt lat="43.61814" lon="6.94673">
        <ele>117.61</ele>
        <time>2015-09-07T13:51:43Z</time>
      </trkpt>
      <trkpt lat="43.61813" lon="6.94648">
        <ele>121.04</ele>
        <time>2015-09-07T13:52:22Z</time>
      </trkpt>
      <trkpt lat="43.61821" lon="6.94625">
        <ele>123.27</ele>
        <time>2015-09-07T13:52:41Z</time>
      </trkpt>
      <trkpt lat="43.61828" lon="6.94602">
        <ele>119.83</ele>
        <time>2015-09-07T13:53:02Z</time>
      </trkpt>
      <trkpt lat="43.61837" lon="6.9458">
        <ele>124.17</ele>
        <time>2015-09-07T13:53:21Z</time>
      </trkpt>
      <trkpt lat="43.61846" lon="6.94557">
        <ele>128.11</ele>
        <time>2015-09-07T13:53:52Z</time>
      </trkpt>
      <trkpt lat="43.61859" lon="6.94538">
        <ele>136.49</ele>
        <time>2015-09-07T13:54:26Z</time>
      </trkpt>
      <trkpt lat="43.61862" lon="6.94513">
        <ele>141.66</ele>
        <time>2015-09-07T13:54:42Z</time>
      </trkpt>
      <trkpt lat="43.61867" lon="6.94489">
        <ele>139.87</ele>
        <time>2015-09-07T13:55:03Z</time>
      </trkpt>
      <trkpt lat="43.61872" lon="6.94464">
        <ele>145.13</ele>
        <time>2015-09-07T13:55:20Z</time>
      </trkpt>
      <trkpt lat="43.61884" lon="6.94444">
        <ele>149.31</ele>
        <time>2015-09-07T13:55:35Z</time>
      </trkpt>
      <trkpt lat="43.619" lon="6.94431">
        <ele>152.67</ele>
        <time>2015-09-07T13:56:47Z</time>
      </trkpt>
      <trkpt lat="43.61918" lon="6.94434">
        <ele>150.97</ele>
        <time>2015-09-07T13:56:56Z</time>
      </trkpt>
      <trkpt lat="43.61937" lon="6.94436">
        <ele>150.21</ele>
        <time>2015-09-07T13:57:05Z</time>
      </trkpt>
      <trkpt lat="43.61955" lon="6.9444">
        <ele>149.8</ele>
        <time>2015-09-07T13:57:14Z</time>
      </trkpt>
      <trkpt lat="43.61976" lon="6.94442">
        <ele>151.03</ele>
        <time>2015-09-07T13:57:23Z</time>
      </trkpt>
      <trkpt lat="43.61994" lon="6.94443">
        <ele>152.97</ele>
        <time>2015-09-07T13:57:30Z</time>
      </trkpt>
      <trkpt lat="43.62013" lon="6.94444">
        <ele>152.26</ele>
        <time>2015-09-07T13:57:39Z</time>
      </trkpt>
      <trkpt lat="43.62031" lon="6.94447">
        <ele>151.96</ele>
        <time>2015-09-07T13:57:45Z</time>
      </trkpt>
      <trkpt lat="43.62049" lon="6.94451">
        <ele>151.76</ele>
        <time>2015-09-07T13:57:50Z</time>
      </trkpt>
      <trkpt lat="43.62068" lon="6.94453">
        <ele>149</ele>
        <time>2015-09-07T13:57:53Z</time>
      </trkpt>
      <trkpt lat="43.62089" lon="6.94457">
        <ele>147.6</ele>
        <time>2015-09-07T13:57:57Z</time>
      </trkpt>
      <trkpt lat="43.62108" lon="6.94461">
        <ele>147.64</ele>
        <time>2015-09-07T13:58:01Z</time>
      </trkpt>
      <trkpt lat="43.62127" lon="6.94461">
        <ele>147.53</ele>
        <time>2015-09-07T13:58:08Z</time>
      </trkpt>
      <trkpt lat="43.62147" lon="6.94461">
        <ele>148.87</ele>
        <time>2015-09-07T13:58:15Z</time>
      </trkpt>
      <trkpt lat="43.62166" lon="6.94467">
        <ele>149.98</ele>
        <time>2015-09-07T13:58:22Z</time>
      </trkpt>
      <trkpt lat="43.62184" lon="6.94468">
        <ele>150.67</ele>
        <time>2015-09-07T13:58:28Z</time>
      </trkpt>
      <trkpt lat="43.62203" lon="6.94471">
        <ele>150.56</ele>
        <time>2015-09-07T13:58:34Z</time>
      </trkpt>
      <trkpt lat="43.62222" lon="6.94472">
        <ele>152.39</ele>
        <time>2015-09-07T13:58:40Z</time>
      </trkpt>
      <trkpt lat="43.62242" lon="6.94473">
        <ele>155.73</ele>
        <time>2015-09-07T13:58:47Z</time>
      </trkpt>
      <trkpt lat="43.62262" lon="6.94472">
        <ele>159.52</ele>
        <time>2015-09-07T13:58:54Z</time>
      </trkpt>
      <trkpt lat="43.62282" lon="6.94472">
        <ele>162.85</ele>
        <time>2015-09-07T13:59:02Z</time>
      </trkpt>
      <trkpt lat="43.623" lon="6.94473">
        <ele>165.15</ele>
        <time>2015-09-07T13:59:09Z</time>
      </trkpt>
      <trkpt lat="43.62319" lon="6.94465">
        <ele>166.99</ele>
        <time>2015-09-07T13:59:16Z</time>
      </trkpt>
      <trkpt lat="43.62339" lon="6.9446">
        <ele>167.46</ele>
        <time>2015-09-07T13:59:23Z</time>
      </trkpt>
      <trkpt lat="43.62359" lon="6.94454">
        <ele>170.61</ele>
        <time>2015-09-07T13:59:30Z</time>
      </trkpt>
      <trkpt lat="43.62379" lon="6.94446">
        <ele>169.8</ele>
        <time>2015-09-07T13:59:37Z</time>
      </trkpt>
      <trkpt lat="43.62397" lon="6.94437">
        <ele>171.82</ele>
        <time>2015-09-07T13:59:47Z</time>
      </trkpt>
      <trkpt lat="43.62415" lon="6.94428">
        <ele>174.14</ele>
        <time>2015-09-07T13:59:58Z</time>
      </trkpt>
      <trkpt lat="43.62433" lon="6.9442">
        <ele>177.79</ele>
        <time>2015-09-07T14:00:10Z</time>
      </trkpt>
      <trkpt lat="43.6245" lon="6.94411">
        <ele>177.44</ele>
        <time>2015-09-07T14:00:20Z</time>
      </trkpt>
      <trkpt lat="43.62466" lon="6.94397">
        <ele>176.7</ele>
        <time>2015-09-07T14:00:29Z</time>
      </trkpt>
      <trkpt lat="43.62483" lon="6.9439">
        <ele>174.1</ele>
        <time>2015-09-07T14:00:37Z</time>
      </trkpt>
      <trkpt lat="43.62503" lon="6.94385">
        <ele>177.11</ele>
        <time>2015-09-07T14:00:45Z</time>
      </trkpt>
      <trkpt lat="43.62521" lon="6.94388">
        <ele>175.14</ele>
        <time>2015-09-07T14:00:52Z</time>
      </trkpt>
      <trkpt lat="43.62539" lon="6.94388">
        <ele>172.61</ele>
        <time>2015-09-07T14:00:58Z</time>
      </trkpt>
      <trkpt lat="43.6256" lon="6.94391">
        <ele>173.89</ele>
        <time>2015-09-07T14:01:02Z</time>
      </trkpt>
      <trkpt lat="43.62578" lon="6.94394">
        <ele>173.39</ele>
        <time>2015-09-07T14:01:05Z</time>
      </trkpt>
      <trkpt lat="43.62602" lon="6.94395">
        <ele>173.38</ele>
        <time>2015-09-07T14:01:09Z</time>
      </trkpt>
      <trkpt lat="43.62622" lon="6.94395">
        <ele>173.08</ele>
        <time>2015-09-07T14:01:12Z</time>
      </trkpt>
      <trkpt lat="43.62645" lon="6.94396">
        <ele>173.23</ele>
        <time>2015-09-07T14:01:16Z</time>
      </trkpt>
      <trkpt lat="43.62663" lon="6.94394">
        <ele>171.87</ele>
        <time>2015-09-07T14:01:20Z</time>
      </trkpt>
      <trkpt lat="43.62684" lon="6.94387">
        <ele>171.41</ele>
        <time>2015-09-07T14:01:24Z</time>
      </trkpt>
      <trkpt lat="43.62704" lon="6.94385">
        <ele>173.53</ele>
        <time>2015-09-07T14:01:29Z</time>
      </trkpt>
      <trkpt lat="43.62725" lon="6.94387">
        <ele>176.75</ele>
        <time>2015-09-07T14:01:34Z</time>
      </trkpt>
      <trkpt lat="43.62744" lon="6.94387">
        <ele>180.69</ele>
        <time>2015-09-07T14:01:39Z</time>
      </trkpt>
      <trkpt lat="43.62763" lon="6.94388">
        <ele>182.63</ele>
        <time>2015-09-07T14:01:44Z</time>
      </trkpt>
      <trkpt lat="43.62782" lon="6.94389">
        <ele>184.66</ele>
        <time>2015-09-07T14:01:51Z</time>
      </trkpt>
      <trkpt lat="43.62802" lon="6.94392">
        <ele>182.9</ele>
        <time>2015-09-07T14:01:59Z</time>
      </trkpt>
      <trkpt lat="43.62822" lon="6.94396">
        <ele>184.15</ele>
        <time>2015-09-07T14:02:06Z</time>
      </trkpt>
      <trkpt lat="43.62843" lon="6.94397">
        <ele>185.78</ele>
        <time>2015-09-07T14:02:13Z</time>
      </trkpt>
      <trkpt lat="43.62864" lon="6.94398">
        <ele>185.83</ele>
        <time>2015-09-07T14:02:19Z</time>
      </trkpt>
      <trkpt lat="43.62886" lon="6.9439">
        <ele>186.32</ele>
        <time>2015-09-07T14:02:24Z</time>
      </trkpt>
      <trkpt lat="43.62902" lon="6.94373">
        <ele>187</ele>
        <time>2015-09-07T14:02:28Z</time>
      </trkpt>
      <trkpt lat="43.62921" lon="6.94359">
        <ele>189.04</ele>
        <time>2015-09-07T14:02:32Z</time>
      </trkpt>
      <trkpt lat="43.62943" lon="6.94344">
        <ele>188.35</ele>
        <time>2015-09-07T14:02:36Z</time>
      </trkpt>
      <trkpt lat="43.6296" lon="6.94331">
        <ele>188.31</ele>
        <time>2015-09-07T14:02:40Z</time>
      </trkpt>
      <trkpt lat="43.62978" lon="6.94312">
        <ele>186.68</ele>
        <time>2015-09-07T14:02:44Z</time>
      </trkpt>
      <trkpt lat="43.62995" lon="6.94298">
        <ele>186.02</ele>
        <time>2015-09-07T14:02:48Z</time>
      </trkpt>
      <trkpt lat="43.63016" lon="6.94291">
        <ele>188.04</ele>
        <time>2015-09-07T14:02:52Z</time>
      </trkpt>
      <trkpt lat="43.6304" lon="6.94284">
        <ele>189.17</ele>
        <time>2015-09-07T14:02:56Z</time>
      </trkpt>
      <trkpt lat="43.63058" lon="6.94276">
        <ele>188.17</ele>
        <time>2015-09-07T14:02:59Z</time>
      </trkpt>
      <trkpt lat="43.63079" lon="6.94264">
        <ele>188.74</ele>
        <time>2015-09-07T14:03:03Z</time>
      </trkpt>
      <trkpt lat="43.63098" lon="6.94259">
        <ele>188.34</ele>
        <time>2015-09-07T14:03:07Z</time>
      </trkpt>
      <trkpt lat="43.63117" lon="6.94247">
        <ele>187.75</ele>
        <time>2015-09-07T14:03:11Z</time>
      </trkpt>
      <trkpt lat="43.63136" lon="6.94234">
        <ele>187.84</ele>
        <time>2015-09-07T14:03:15Z</time>
      </trkpt>
      <trkpt lat="43.63157" lon="6.94235">
        <ele>190.4</ele>
        <time>2015-09-07T14:03:19Z</time>
      </trkpt>
      <trkpt lat="43.63175" lon="6.9424">
        <ele>189.7</ele>
        <time>2015-09-07T14:03:22Z</time>
      </trkpt>
      <trkpt lat="43.63195" lon="6.94249">
        <ele>189.08</ele>
        <time>2015-09-07T14:03:26Z</time>
      </trkpt>
      <trkpt lat="43.63215" lon="6.94259">
        <ele>187.86</ele>
        <time>2015-09-07T14:03:30Z</time>
      </trkpt>
      <trkpt lat="43.63233" lon="6.94272">
        <ele>185.91</ele>
        <time>2015-09-07T14:03:34Z</time>
      </trkpt>
      <trkpt lat="43.63254" lon="6.94286">
        <ele>188.01</ele>
        <time>2015-09-07T14:03:39Z</time>
      </trkpt>
      <trkpt lat="43.63272" lon="6.94288">
        <ele>190.79</ele>
        <time>2015-09-07T14:03:43Z</time>
      </trkpt>
      <trkpt lat="43.63294" lon="6.94287">
        <ele>194.38</ele>
        <time>2015-09-07T14:03:48Z</time>
      </trkpt>
      <trkpt lat="43.63318" lon="6.94286">
        <ele>196.13</ele>
        <time>2015-09-07T14:03:52Z</time>
      </trkpt>
      <trkpt lat="43.63337" lon="6.94286">
        <ele>198.05</ele>
        <time>2015-09-07T14:03:56Z</time>
      </trkpt>
      <trkpt lat="43.63359" lon="6.94286">
        <ele>198.67</ele>
        <time>2015-09-07T14:04:00Z</time>
      </trkpt>
      <trkpt lat="43.63378" lon="6.94277">
        <ele>198.89</ele>
        <time>2015-09-07T14:04:04Z</time>
      </trkpt>
      <trkpt lat="43.63399" lon="6.94274">
        <ele>196.53</ele>
        <time>2015-09-07T14:04:08Z</time>
      </trkpt>
      <trkpt lat="43.63418" lon="6.94267">
        <ele>197.07</ele>
        <time>2015-09-07T14:04:12Z</time>
      </trkpt>
      <trkpt lat="43.6344" lon="6.9426">
        <ele>198.36</ele>
        <time>2015-09-07T14:04:17Z</time>
      </trkpt>
      <trkpt lat="43.63459" lon="6.9425">
        <ele>197.5</ele>
        <time>2015-09-07T14:04:21Z</time>
      </trkpt>
      <trkpt lat="43.6348" lon="6.94244">
        <ele>198.13</ele>
        <time>2015-09-07T14:04:25Z</time>
      </trkpt>
      <trkpt lat="43.63505" lon="6.94233">
        <ele>196.24</ele>
        <time>2015-09-07T14:04:29Z</time>
      </trkpt>
      <trkpt lat="43.63527" lon="6.94222">
        <ele>194.06</ele>
        <time>2015-09-07T14:04:32Z</time>
      </trkpt>
      <trkpt lat="43.63551" lon="6.94208">
        <ele>194.16</ele>
        <time>2015-09-07T14:04:35Z</time>
      </trkpt>
      <trkpt lat="43.63568" lon="6.94197">
        <ele>194.17</ele>
        <time>2015-09-07T14:04:37Z</time>
      </trkpt>
      <trkpt lat="43.63585" lon="6.94185">
        <ele>194.18</ele>
        <time>2015-09-07T14:04:39Z</time>
      </trkpt>
      <trkpt lat="43.63604" lon="6.94178">
        <ele>193.68</ele>
        <time>2015-09-07T14:04:41Z</time>
      </trkpt>
      <trkpt lat="43.63616" lon="6.94155">
        <ele>195.03</ele>
        <time>2015-09-07T14:04:49Z</time>
      </trkpt>
      <trkpt lat="43.63623" lon="6.94127">
        <ele>190.86</ele>
        <time>2015-09-07T14:04:54Z</time>
      </trkpt>
      <trkpt lat="43.63627" lon="6.94101">
        <ele>190.79</ele>
        <time>2015-09-07T14:04:59Z</time>
      </trkpt>
      <trkpt lat="43.63635" lon="6.94078">
        <ele>190.14</ele>
        <time>2015-09-07T14:05:05Z</time>
      </trkpt>
      <trkpt lat="43.63653" lon="6.94082">
        <ele>189.82</ele>
        <time>2015-09-07T14:05:12Z</time>
      </trkpt>
      <trkpt lat="43.63679" lon="6.94084">
        <ele>186</ele>
        <time>2015-09-07T14:05:36Z</time>
      </trkpt>
      <trkpt lat="43.637" lon="6.94087">
        <ele>188.9</ele>
        <time>2015-09-07T14:05:39Z</time>
      </trkpt>
      <trkpt lat="43.63719" lon="6.94093">
        <ele>190.77</ele>
        <time>2015-09-07T14:05:42Z</time>
      </trkpt>
      <trkpt lat="43.63738" lon="6.94108">
        <ele>186.78</ele>
        <time>2015-09-07T14:05:46Z</time>
      </trkpt>
      <trkpt lat="43.63761" lon="6.9412">
        <ele>183.59</ele>
        <time>2015-09-07T14:05:50Z</time>
      </trkpt>
      <trkpt lat="43.63777" lon="6.94132">
        <ele>182.48</ele>
        <time>2015-09-07T14:05:53Z</time>
      </trkpt>
      <trkpt lat="43.63795" lon="6.94141">
        <ele>182.84</ele>
        <time>2015-09-07T14:05:56Z</time>
      </trkpt>
      <trkpt lat="43.63814" lon="6.94145">
        <ele>183.01</ele>
        <time>2015-09-07T14:05:59Z</time>
      </trkpt>
      <trkpt lat="43.63833" lon="6.94143">
        <ele>183.16</ele>
        <time>2015-09-07T14:06:02Z</time>
      </trkpt>
      <trkpt lat="43.63852" lon="6.94143">
        <ele>184.55</ele>
        <time>2015-09-07T14:06:05Z</time>
      </trkpt>
      <trkpt lat="43.63871" lon="6.94142">
        <ele>185.6</ele>
        <time>2015-09-07T14:06:08Z</time>
      </trkpt>
      <trkpt lat="43.63889" lon="6.9414">
        <ele>186.35</ele>
        <time>2015-09-07T14:06:11Z</time>
      </trkpt>
      <trkpt lat="43.63909" lon="6.9414">
        <ele>188.95</ele>
        <time>2015-09-07T14:06:14Z</time>
      </trkpt>
      <trkpt lat="43.6393" lon="6.94144">
        <ele>189.4</ele>
        <time>2015-09-07T14:06:17Z</time>
      </trkpt>
      <trkpt lat="43.63949" lon="6.94152">
        <ele>188.7</ele>
        <time>2015-09-07T14:06:20Z</time>
      </trkpt>
      <trkpt lat="43.6397" lon="6.94165">
        <ele>189.37</ele>
        <time>2015-09-07T14:06:23Z</time>
      </trkpt>
      <trkpt lat="43.63993" lon="6.9418">
        <ele>188.32</ele>
        <time>2015-09-07T14:06:26Z</time>
      </trkpt>
      <trkpt lat="43.64015" lon="6.94194">
        <ele>187.82</ele>
        <time>2015-09-07T14:06:29Z</time>
      </trkpt>
      <trkpt lat="43.64035" lon="6.94207">
        <ele>188.13</ele>
        <time>2015-09-07T14:06:32Z</time>
      </trkpt>
      <trkpt lat="43.64055" lon="6.94218">
        <ele>186.92</ele>
        <time>2015-09-07T14:06:35Z</time>
      </trkpt>
      <trkpt lat="43.64075" lon="6.94227">
        <ele>188.27</ele>
        <time>2015-09-07T14:06:38Z</time>
      </trkpt>
      <trkpt lat="43.64094" lon="6.94231">
        <ele>189.56</ele>
        <time>2015-09-07T14:06:41Z</time>
      </trkpt>
      <trkpt lat="43.64115" lon="6.94238">
        <ele>189.22</ele>
        <time>2015-09-07T14:06:44Z</time>
      </trkpt>
      <trkpt lat="43.64135" lon="6.9424">
        <ele>188.68</ele>
        <time>2015-09-07T14:06:47Z</time>
      </trkpt>
      <trkpt lat="43.64154" lon="6.94239">
        <ele>186.61</ele>
        <time>2015-09-07T14:06:50Z</time>
      </trkpt>
      <trkpt lat="43.64173" lon="6.94238">
        <ele>186.98</ele>
        <time>2015-09-07T14:06:53Z</time>
      </trkpt>
      <trkpt lat="43.64192" lon="6.9424">
        <ele>185.78</ele>
        <time>2015-09-07T14:06:56Z</time>
      </trkpt>
      <trkpt lat="43.64214" lon="6.94241">
        <ele>185.25</ele>
        <time>2015-09-07T14:06:59Z</time>
      </trkpt>
      <trkpt lat="43.64234" lon="6.94236">
        <ele>187.81</ele>
        <time>2015-09-07T14:07:02Z</time>
      </trkpt>
      <trkpt lat="43.64255" lon="6.94229">
        <ele>189.88</ele>
        <time>2015-09-07T14:07:05Z</time>
      </trkpt>
      <trkpt lat="43.64276" lon="6.94223">
        <ele>192.64</ele>
        <time>2015-09-07T14:07:08Z</time>
      </trkpt>
      <trkpt lat="43.64298" lon="6.94215">
        <ele>193.36</ele>
        <time>2015-09-07T14:07:11Z</time>
      </trkpt>
      <trkpt lat="43.64319" lon="6.94209">
        <ele>194.82</ele>
        <time>2015-09-07T14:07:14Z</time>
      </trkpt>
      <trkpt lat="43.64341" lon="6.94205">
        <ele>195.51</ele>
        <time>2015-09-07T14:07:17Z</time>
      </trkpt>
      <trkpt lat="43.64362" lon="6.942">
        <ele>196.09</ele>
        <time>2015-09-07T14:07:20Z</time>
      </trkpt>
      <trkpt lat="43.64384" lon="6.94188">
        <ele>195.67</ele>
        <time>2015-09-07T14:07:23Z</time>
      </trkpt>
      <trkpt lat="43.64405" lon="6.94167">
        <ele>194.36</ele>
        <time>2015-09-07T14:07:26Z</time>
      </trkpt>
      <trkpt lat="43.64422" lon="6.94137">
        <ele>193.45</ele>
        <time>2015-09-07T14:07:29Z</time>
      </trkpt>
      <trkpt lat="43.64439" lon="6.94108">
        <ele>191.84</ele>
        <time>2015-09-07T14:07:32Z</time>
      </trkpt>
      <trkpt lat="43.64453" lon="6.94089">
        <ele>190.59</ele>
        <time>2015-09-07T14:07:34Z</time>
      </trkpt>
      <trkpt lat="43.64466" lon="6.9407">
        <ele>190.28</ele>
        <time>2015-09-07T14:07:36Z</time>
      </trkpt>
      <trkpt lat="43.64481" lon="6.94056">
        <ele>187.56</ele>
        <time>2015-09-07T14:07:39Z</time>
      </trkpt>
      <trkpt lat="43.645" lon="6.94067">
        <ele>178.31</ele>
        <time>2015-09-07T14:07:54Z</time>
      </trkpt>
      <trkpt lat="43.6452" lon="6.9406">
        <ele>178.69</ele>
        <time>2015-09-07T14:07:57Z</time>
      </trkpt>
      <trkpt lat="43.64533" lon="6.94039">
        <ele>179.99</ele>
        <time>2015-09-07T14:08:00Z</time>
      </trkpt>
      <trkpt lat="43.64552" lon="6.94024">
        <ele>182.29</ele>
        <time>2015-09-07T14:08:04Z</time>
      </trkpt>
      <trkpt lat="43.64573" lon="6.94025">
        <ele>186.15</ele>
        <time>2015-09-07T14:08:10Z</time>
      </trkpt>
      <trkpt lat="43.64591" lon="6.94024">
        <ele>188.03</ele>
        <time>2015-09-07T14:08:16Z</time>
      </trkpt>
      <trkpt lat="43.64611" lon="6.94026">
        <ele>187.41</ele>
        <time>2015-09-07T14:08:22Z</time>
      </trkpt>
      <trkpt lat="43.6463" lon="6.94025">
        <ele>187.15</ele>
        <time>2015-09-07T14:08:28Z</time>
      </trkpt>
      <trkpt lat="43.6465" lon="6.94026">
        <ele>187.35</ele>
        <time>2015-09-07T14:08:34Z</time>
      </trkpt>
      <trkpt lat="43.64669" lon="6.94025">
        <ele>191.76</ele>
        <time>2015-09-07T14:08:41Z</time>
      </trkpt>
      <trkpt lat="43.64689" lon="6.94027">
        <ele>189.71</ele>
        <time>2015-09-07T14:08:49Z</time>
      </trkpt>
      <trkpt lat="43.64709" lon="6.94028">
        <ele>192.05</ele>
        <time>2015-09-07T14:09:00Z</time>
      </trkpt>
      <trkpt lat="43.64725" lon="6.94014">
        <ele>194.2</ele>
        <time>2015-09-07T14:09:10Z</time>
      </trkpt>
      <trkpt lat="43.64742" lon="6.94004">
        <ele>196.92</ele>
        <time>2015-09-07T14:09:20Z</time>
      </trkpt>
      <trkpt lat="43.6476" lon="6.93994">
        <ele>201.55</ele>
        <time>2015-09-07T14:09:32Z</time>
      </trkpt>
      <trkpt lat="43.64779" lon="6.93988">
        <ele>205.31</ele>
        <time>2015-09-07T14:09:42Z</time>
      </trkpt>
      <trkpt lat="43.64798" lon="6.93983">
        <ele>209.87</ele>
        <time>2015-09-07T14:09:51Z</time>
      </trkpt>
      <trkpt lat="43.64815" lon="6.93973">
        <ele>210.53</ele>
        <time>2015-09-07T14:10:00Z</time>
      </trkpt>
      <trkpt lat="43.6483" lon="6.93954">
        <ele>212.15</ele>
        <time>2015-09-07T14:10:10Z</time>
      </trkpt>
      <trkpt lat="43.64843" lon="6.93935">
        <ele>211.24</ele>
        <time>2015-09-07T14:10:19Z</time>
      </trkpt>
      <trkpt lat="43.64851" lon="6.93912">
        <ele>212.03</ele>
        <time>2015-09-07T14:10:28Z</time>
      </trkpt>
      <trkpt lat="43.64856" lon="6.93887">
        <ele>210.44</ele>
        <time>2015-09-07T14:10:39Z</time>
      </trkpt>
      <trkpt lat="43.64861" lon="6.93861">
        <ele>210.64</ele>
        <time>2015-09-07T14:10:51Z</time>
      </trkpt>
      <trkpt lat="43.64852" lon="6.93837">
        <ele>213.62</ele>
        <time>2015-09-07T14:10:58Z</time>
      </trkpt>
      <trkpt lat="43.64853" lon="6.93811">
        <ele>215.53</ele>
        <time>2015-09-07T14:11:06Z</time>
      </trkpt>
      <trkpt lat="43.64853" lon="6.93784">
        <ele>218.74</ele>
        <time>2015-09-07T14:11:15Z</time>
      </trkpt>
      <trkpt lat="43.64853" lon="6.93754">
        <ele>221.24</ele>
        <time>2015-09-07T14:11:23Z</time>
      </trkpt>
      <trkpt lat="43.64857" lon="6.93729">
        <ele>223.62</ele>
        <time>2015-09-07T14:11:28Z</time>
      </trkpt>
      <trkpt lat="43.64863" lon="6.93699">
        <ele>221.78</ele>
        <time>2015-09-07T14:11:33Z</time>
      </trkpt>
      <trkpt lat="43.64867" lon="6.93671">
        <ele>221.21</ele>
        <time>2015-09-07T14:11:37Z</time>
      </trkpt>
      <trkpt lat="43.64868" lon="6.93643">
        <ele>221.12</ele>
        <time>2015-09-07T14:11:44Z</time>
      </trkpt>
      <trkpt lat="43.64867" lon="6.93615">
        <ele>220.71</ele>
        <time>2015-09-07T14:11:49Z</time>
      </trkpt>
      <trkpt lat="43.64874" lon="6.93589">
        <ele>218.44</ele>
        <time>2015-09-07T14:11:54Z</time>
      </trkpt>
      <trkpt lat="43.64878" lon="6.93563">
        <ele>222.03</ele>
        <time>2015-09-07T14:11:59Z</time>
      </trkpt>
      <trkpt lat="43.64883" lon="6.93535">
        <ele>222.2</ele>
        <time>2015-09-07T14:12:04Z</time>
      </trkpt>
      <trkpt lat="43.64889" lon="6.93508">
        <ele>222.43</ele>
        <time>2015-09-07T14:12:09Z</time>
      </trkpt>
      <trkpt lat="43.64898" lon="6.93482">
        <ele>224.34</ele>
        <time>2015-09-07T14:12:14Z</time>
      </trkpt>
      <trkpt lat="43.64901" lon="6.93456">
        <ele>226.62</ele>
        <time>2015-09-07T14:12:19Z</time>
      </trkpt>
      <trkpt lat="43.64906" lon="6.93431">
        <ele>231.44</ele>
        <time>2015-09-07T14:12:24Z</time>
      </trkpt>
      <trkpt lat="43.64915" lon="6.93408">
        <ele>230.99</ele>
        <time>2015-09-07T14:12:30Z</time>
      </trkpt>
      <trkpt lat="43.64925" lon="6.93383">
        <ele>232.16</ele>
        <time>2015-09-07T14:12:36Z</time>
      </trkpt>
      <trkpt lat="43.64936" lon="6.9336">
        <ele>232.55</ele>
        <time>2015-09-07T14:12:41Z</time>
      </trkpt>
      <trkpt lat="43.64954" lon="6.93356">
        <ele>233.9</ele>
        <time>2015-09-07T14:12:47Z</time>
      </trkpt>
      <trkpt lat="43.64972" lon="6.93366">
        <ele>235.17</ele>
        <time>2015-09-07T14:12:52Z</time>
      </trkpt>
      <trkpt lat="43.64992" lon="6.93379">
        <ele>235.52</ele>
        <time>2015-09-07T14:12:58Z</time>
      </trkpt>
      <trkpt lat="43.65008" lon="6.93395">
        <ele>234.51</ele>
        <time>2015-09-07T14:13:04Z</time>
      </trkpt>
      <trkpt lat="43.65009" lon="6.9342">
        <ele>233.56</ele>
        <time>2015-09-07T14:13:09Z</time>
      </trkpt>
      <trkpt lat="43.64982" lon="6.93442">
        <ele>235.18</ele>
        <time>2015-09-07T14:13:52Z</time>
      </trkpt>
      <trkpt lat="43.65003" lon="6.93424">
        <ele>236.68</ele>
        <time>2015-09-07T14:13:57Z</time>
      </trkpt>
      <trkpt lat="43.64991" lon="6.93444">
        <ele>229.66</ele>
        <time>2015-09-07T14:14:31Z</time>
      </trkpt>
      <trkpt lat="43.65004" lon="6.93424">
        <ele>226.16</ele>
        <time>2015-09-07T14:14:44Z</time>
      </trkpt>
      <trkpt lat="43.64986" lon="6.93413">
        <ele>228.52</ele>
        <time>2015-09-07T14:15:04Z</time>
      </trkpt>
    </trkseg>
  </trk>
</gpx>